Ship Status Report: callsign 000000

sailwx.info

Track history (hours):
 
Tides and Currents Weather Stations Pressure Air Temp Water Temp Dewpoint Dewpoint Depression Visibility Wind Speed Wind Dir Waves Ship Positions

Callsign 000000 (name unknown)

Last reported at 2016-Sep-30 02:33 UTC. Time now 2016-Sep-30 03:12 UTC.
Position S 20°09' E 057°30'.

Type: Fishing. MMSI: 200007452.

Date/timePositionNaut miles runAvg speedWind from/ knotsBaromVisibWave heightAir tempDewpointWater temp
2016-Sep-30 02:33S 20°09' E 057°30'4915478213.7
2016-Sep-30 02:33N 31°34' E 121°20'4915173469.7
2016-Sep-30 02:31S 20°09' E 057°30'491521738.6
2016-Sep-30 02:18N 31°30' E 121°23'3704255.3
2016-Sep-30 02:12N 37°40' E 121°08'37160652.8
2016-Sep-30 02:12N 31°30' E 121°24'6424.2
2016-Sep-29 23:34N 31°56' E 120°16'48792927309.9
2016-Sep-29 23:33S 20°09' E 057°30'48941468321.3
2016-Sep-29 23:33N 29°54' E 122°08'1014044.9
2016-Sep-29 23:32N 31°28' E 121°25'47311438.7
2016-Sep-29 23:29N 24°09' E 118°05'4502245574.8
2016-Sep-29 23:28S 20°09' E 057°30'4885217108.9
2016-Sep-29 23:27N 31°58' E 120°22'601906.4
2016-Sep-29 23:25N 31°30' E 121°24'146.1
2016-Sep-29 23:24N 31°30' E 121°23'54935931.5
2016-Sep-29 23:23N 23°21' E 116°43'4951717.6
2016-Sep-29 23:06N 29°52' E 122°22'11474.2
2016-Sep-29 21:33N 31°33' E 121°20'49145896887.3
2016-Sep-29 21:33S 20°09' E 057°30'49161040948.7
2016-Sep-29 21:33N 31°30' E 121°24'2646.8
2016-Sep-29 21:33N 31°28' E 121°25'7514204.2
2016-Sep-29 21:33N 31°57' E 120°04'4870199246.3
2016-Sep-29 21:31S 20°09' E 057°30'4915884769.8
2016-Sep-29 21:31N 31°30' E 121°23'4755913.3
2016-Sep-29 21:26N 24°09' E 118°06'4632378.4
2016-Sep-29 21:14N 31°15' E 121°31'733308.5
2016-Sep-29 21:13N 31°58' E 120°22'410622.9
2016-Sep-29 20:34N 38°44' E 121°28'1026923590.4
2016-Sep-29 20:33N 23°04' E 113°29'260103901.0
2016-Sep-29 20:33N 24°07' E 118°04'47633625.4
2016-Sep-29 20:32N 31°30' E 121°24'261.6
2016-Sep-29 20:31N 31°28' E 121°25'31361.9
2016-Sep-29 20:31N 31°30' E 121°23'29625399.8
2016-Sep-29 20:30N 26°47' E 119°43'31362568.4
2016-Sep-29 20:30N 31°58' E 120°22'4885197593.5
2016-Sep-29 20:28S 20°09' E 057°30'4868265543.8
2016-Sep-29 20:27N 32°03' E 119°56'119.9
2016-Sep-29 20:23N 32°02' E 119°57'4868194722.0
2016-Sep-29 20:21S 20°09' E 057°30'496850522.6
2016-Sep-29 20:15N 35°17' E 119°32'3559530.3
2016-Sep-29 20:13N 29°52' E 122°22'49047381.2
2016-Sep-29 19:33S 20°09' E 057°30'48703506340.3
2016-Sep-29 19:33N 31°58' E 120°02'779500.3
2016-Sep-29 19:33N 31°28' E 121°25'788476.8
2016-Sep-29 19:32N 31°59' E 120°01'7611422.7
2016-Sep-29 19:32N 31°30' E 121°24'6332318.1
2016-Sep-29 19:32N 31°57' E 120°17'4880474852.1
2016-Sep-29 19:31S 20°09' E 057°30'4915229809.9
2016-Sep-29 19:30N 31°30' E 121°23'19172.2
2016-Sep-29 19:23N 31°43' E 121°07'4839147.4
2016-Sep-29 19:20N 24°08' E 118°04'1821127.4
2016-Sep-29 19:11N 26°47' E 119°42'40547062.2
2016-Sep-29 19:10N 23°04' E 113°29'42431626.6
2016-Sep-29 16:33S 20°09' E 057°30'4874584926.8
2016-Sep-29 16:33N 31°55' E 120°10'14822.5
2016-Sep-29 16:32N 32°03' E 120°25'4881755817.5
2016-Sep-29 16:32N 24°10' E 118°07'17933869.5
2016-Sep-29 16:32N 26°47' E 119°42'4671672626.4
2016-Sep-29 16:31S 20°09' E 057°30'424364726.7
2016-Sep-29 16:27N 23°04' E 113°29'65816456.0
2016-Sep-29 16:25N 31°28' E 121°25'259.4
2016-Sep-29 16:23N 31°30' E 121°24'243433.7
2016-Sep-29 16:23N 31°45' E 121°03'23825.5
2016-Sep-29 16:21N 31°30' E 121°23'6680.7
2016-Sep-29 15:32N 31°56' E 120°11'4875731301.6
2016-Sep-29 15:31S 20°09' E 057°30'0 0.0
2016-Sep-29 15:30S 20°09' E 057°30'491180362.1
2016-Sep-29 15:27N 31°43' E 121°08'30514268.3
2016-Sep-29 15:25N 26°47' E 119°42'29731394.7
2016-Sep-29 15:25N 31°30' E 121°24'65920616.8
2016-Sep-29 15:23N 23°04' E 113°29'6594931.3
2016-Sep-29 15:15N 31°29' E 121°25'581131.0
2016-Sep-29 15:12N 32°04' E 120°30'721243.6
2016-Sep-29 15:08N 31°15' E 121°31'1423.7
2016-Sep-29 14:33N 31°28' E 121°25'6813556.1
2016-Sep-29 14:33N 31°56' E 120°13'4876129077.4
2016-Sep-29 14:30S 20°09' E 057°30'4916491610.1
2016-Sep-29 14:30N 31°29' E 121°25'1160.1
2016-Sep-29 14:29N 31°30' E 121°24'29666702.1
2016-Sep-29 14:29N 26°47' E 119°42'4671275665.3
2016-Sep-29 14:28S 20°09' E 057°30'4911376161.5
2016-Sep-29 14:27N 31°43' E 121°08'341090.2
2016-Sep-29 14:26N 31°15' E 121°31'39258.2
2016-Sep-29 14:17N 31°46' E 121°03'3953.0
2016-Sep-29 13:33N 31°15' E 121°31'49121473638.3
2016-Sep-29 13:33S 20°09' E 057°30'4915465661.6
2016-Sep-29 13:32N 31°30' E 121°23'6316130.2
2016-Sep-29 13:32N 31°57' E 120°16'488065065.5
2016-Sep-29 13:27S 20°09' E 057°30'42432545918.9
2016-Sep-29 13:27N 23°04' E 113°29'40515040.9
2016-Sep-29 13:25N 26°47' E 119°42'29560.5
2016-Sep-29 08:33N 31°28' E 121°25'49162212069.3
2016-Sep-29 08:33S 20°09' E 057°30'0 1.1
2016-Sep-29 08:32S 20°09' E 057°30'4915186267.1
2016-Sep-29 08:31N 31°30' E 121°23'145636.0
2016-Sep-29 08:31N 31°40' E 121°11'65913187.6
2016-Sep-29 08:28N 23°04' E 113°29'65610688.7
2016-Sep-29 08:24N 31°21' E 121°31'10806.7
2016-Sep-29 08:23N 31°30' E 121°24'2966277.3
2016-Sep-29 08:20N 26°47' E 119°42'3174035.2
2016-Sep-29 08:16N 32°02' E 120°27'5984.0
2016-Sep-29 07:33N 31°29' E 121°25'1433.7
2016-Sep-29 07:33N 31°30' E 121°24'65981754.2
2016-Sep-29 07:32N 23°04' E 113°29'40572942.3
2016-Sep-29 07:32N 26°47' E 119°42'4671107791.9
2016-Sep-29 07:30S 20°09' E 057°30'4915536223.5
2016-Sep-29 07:29N 31°30' E 121°23'56961.1
2016-Sep-29 07:26N 31°59' E 120°27'33246.2
2016-Sep-29 07:18N 31°46' E 121°02'490831608.5
2016-Sep-29 07:08S 20°09' E 057°30'491677287.5
2016-Sep-29 07:04N 31°21' E 121°32'16 2.5
2016-Sep-29 00:33N 31°33' E 121°20'659296527.9
2016-Sep-29 00:33N 23°04' E 113°29'659395536.7
2016-Sep-29 00:33N 31°32' E 121°22'3588.1
2016-Sep-29 00:33N 31°30' E 121°24'4916931371.1
2016-Sep-29 00:33S 20°09' E 057°30'4912930718.1
2016-Sep-29 00:32N 31°15' E 121°31'49122526234.9
2016-Sep-29 00:32S 20°09' E 057°30'488781820.5
2016-Sep-29 00:29N 32°00' E 120°23'121410.2
2016-Sep-29 00:28N 31°56' E 120°09'6245.2
2016-Sep-29 00:26N 31°58' E 120°03'747833.0
2016-Sep-29 00:26N 31°30' E 121°23'19403.1
2016-Sep-29 00:23N 31°17' E 121°08'19263.6
2016-Sep-29 00:19N 31°29' E 121°25'55831884.6
2016-Sep-29 00:18N 23°05' E 116°55'55812100.4
2016-Sep-29 00:15N 31°29' E 121°25'10137.5
2016-Sep-28 21:34N 29°55' E 122°06'957141.0
2016-Sep-28 21:33N 31°25' E 121°31'49193541352.6
2016-Sep-28 21:33S 20°09' E 057°30'49151474580.4
2016-Sep-28 21:32N 31°30' E 121°23'6173693.1
2016-Sep-28 21:32N 31°59' E 120°19'54917.4
2016-Sep-28 21:29N 31°36' E 121°16'94421.8
2016-Sep-28 21:29N 31°30' E 121°23'4915111291.8
2016-Sep-28 21:26S 20°09' E 057°30'4916242443.2
2016-Sep-28 21:25N 31°29' E 121°25'13121.6
2016-Sep-28 21:18N 31°38' E 121°14'46307.5
2016-Sep-28 21:10N 31°58' E 120°26'64932030.0
2016-Sep-28 21:08N 23°04' E 113°29'649407.4
2016-Sep-28 19:33N 31°58' E 120°26'561965.9
2016-Sep-28 19:31N 31°30' E 121°23'491568852.0
2016-Sep-28 19:27S 20°09' E 057°30'4916156622.7
2016-Sep-28 19:25N 31°29' E 121°25'4916188280.4
2016-Sep-28 19:23S 20°09' E 057°30'4915769364.7
2016-Sep-28 19:23N 31°30' E 121°23'1146.5
2016-Sep-28 19:08N 31°21' E 121°31'11 4.4
2016-Sep-28 16:33N 31°30' E 121°23'49151040872.0
2016-Sep-28 16:33S 20°09' E 057°30'4916333890.7
2016-Sep-28 16:32N 31°21' E 121°31'676318.8
2016-Sep-28 16:31N 31°58' E 120°26'36448469.0
2016-Sep-28 16:31N 25°58' E 119°27'34727729.4
2016-Sep-28 16:30N 31°29' E 121°25'4916376557.1
2016-Sep-28 16:29S 20°09' E 057°30'42431697284.7
2016-Sep-28 16:29N 23°04' E 113°29'65918967.3
2016-Sep-28 16:27N 31°30' E 121°23'1771.3
2016-Sep-28 16:13N 31°15' E 121°31'72508.3
2016-Sep-28 16:04N 31°58' E 120°23'58112.4
2016-Sep-28 15:33N 31°30' E 121°23'4915310436.5
2016-Sep-28 15:32S 20°09' E 057°30'0 0.8
2016-Sep-28 15:32S 20°09' E 057°30'4631187316.5
2016-Sep-28 15:31N 25°58' E 119°27'335172103.3
2016-Sep-28 15:30N 31°15' E 121°31'65956493.3
2016-Sep-28 15:30N 22°51' E 113°34'66710479.9
2016-Sep-28 15:26N 31°29' E 121°25'2417.4
2016-Sep-28 15:26N 31°30' E 121°23'581330.8
2016-Sep-28 15:23N 31°58' E 120°23'6482261.3
2016-Sep-28 15:06N 23°04' E 113°29'659258.1
2016-Sep-28 12:33N 31°29' E 121°25'65933408.7
2016-Sep-28 12:31N 23°04' E 113°29'652180443.4
2016-Sep-28 12:31N 31°15' E 121°31'6679.7
2016-Sep-28 12:31N 31°21' E 121°31'340102103.4
2016-Sep-28 12:31N 25°58' E 119°27'4631282559.4
2016-Sep-28 12:30S 20°09' E 057°30'4886135300.0
2016-Sep-28 12:27N 31°58' E 120°23'589059.6
2016-Sep-28 12:27N 31°30' E 121°23'4915264102.1
2016-Sep-28 12:26S 20°09' E 057°30'4915175199.1
2016-Sep-28 12:24N 31°30' E 121°23'15830.0
2016-Sep-28 12:23N 31°41' E 121°11'35492.6
2016-Sep-28 08:34N 25°58' E 119°27'34729707.4
2016-Sep-28 08:33N 31°29' E 121°25'4916983240.8
2016-Sep-28 08:33S 20°09' E 057°30'0 3.6
2016-Sep-28 08:32S 20°09' E 057°30'48744386337.4
2016-Sep-28 08:32N 31°56' E 120°09'786490.6
2016-Sep-28 08:32N 31°21' E 121°31'61144.8
2016-Sep-28 08:31N 31°15' E 121°31'17716.8
2016-Sep-28 08:30N 31°30' E 121°23'65940876.9
2016-Sep-28 08:29N 23°04' E 113°29'656214773.5
2016-Sep-28 08:29N 31°21' E 121°31'1185.1
2016-Sep-28 08:21N 31°30' E 121°23'65939529.8
2016-Sep-28 08:20N 23°04' E 113°29'658137.0
2016-Sep-28 03:32N 31°32' E 121°20'49142211076.1
2016-Sep-28 03:31S 20°09' E 057°30'4243235008.9
2016-Sep-28 03:30N 23°04' E 113°29'65887761.8
2016-Sep-28 03:30N 31°28' E 121°25'4916268130.2
2016-Sep-28 03:29S 20°09' E 057°30'48882513696.9
2016-Sep-28 03:29N 31°58' E 120°26'36418178.1
2016-Sep-28 03:27N 25°58' E 119°27'34725466.1
2016-Sep-28 03:27N 31°29' E 121°25'22336.3
2016-Sep-28 03:23N 31°44' E 121°07'20349.7
2016-Sep-28 03:19N 31°30' E 121°23'1776.2
2016-Sep-28 03:06N 31°15' E 121°31'335611.5
2016-Sep-28 02:33N 25°58' E 119°27'34815270.6
2016-Sep-28 02:32N 31°32' E 121°20'5125.5
2016-Sep-28 02:29N 31°29' E 121°25'825885.8
2016-Sep-28 02:29N 32°03' E 119°57'63930676.1
2016-Sep-28 02:27N 23°04' E 113°29'4243154297.6
2016-Sep-28 02:26S 20°09' E 057°30'49201265236.7
2016-Sep-28 02:26N 31°24' E 121°34'101138.2
2016-Sep-28 02:25N 31°15' E 121°31'14469.5
2016-Sep-28 02:23N 31°28' E 121°25'4916340319.8
2016-Sep-28 02:22S 20°09' E 057°30'4913552658.7
2016-Sep-28 02:22N 31°42' E 121°11'1576.6
2016-Sep-28 02:10N 31°30' E 121°23'347571.7
2016-Sep-28 01:33N 25°58' E 119°27'34439989.1
2016-Sep-28 01:33N 31°25' E 121°33'71670.8
2016-Sep-28 01:33N 31°28' E 121°25'4916983147.6
2016-Sep-28 01:32S 20°09' E 057°30'42431909439.7
2016-Sep-28 01:32N 23°04' E 113°29'65957830.0
2016-Sep-28 01:32N 31°30' E 121°23'31783.2
2016-Sep-28 01:31N 31°32' E 121°20'983188.7
2016-Sep-28 01:30N 29°59' E 121°55'943173.2
2016-Sep-28 01:28N 31°29' E 121°25'8211.5
2016-Sep-28 01:26N 31°35' E 121°19'4915353857.6
2016-Sep-28 01:25S 20°09' E 057°30'48681752430.0
2016-Sep-28 01:25N 31°60' E 119°59'212.6
2016-Sep-28 01:13N 31°59' E 120°01'857123.4
2016-Sep-28 01:12N 31°21' E 121°31'341207.1
2016-Sep-27 23:33N 25°58' E 119°27'4631308720.5
2016-Sep-27 23:32S 20°09' E 057°30'48941761810.4
2016-Sep-27 23:32N 30°00' E 122°03'142861.1
2016-Sep-27 23:32N 29°47' E 122°04'163586549.8
2016-Sep-27 23:32N 31°57' E 120°10'644832.5
2016-Sep-27 23:31N 31°32' E 121°20'4914707546.1
2016-Sep-27 23:31S 20°09' E 057°30'4915242402.0
2016-Sep-27 23:30N 31°30' E 121°23'3469.1
2016-Sep-27 23:29N 31°28' E 121°25'14268.4
2016-Sep-27 23:26N 31°23' E 121°41'15864.7
2016-Sep-27 23:25N 31°29' E 121°25'8409.3
2016-Sep-27 23:24N 31°25' E 121°33'10383.5
2016-Sep-27 23:22N 31°15' E 121°31'6522795.7
2016-Sep-27 23:08N 23°04' E 113°29'65915397.5
2016-Sep-27 23:06N 31°30' E 121°24'550154.9
2016-Sep-27 19:33N 23°22' E 116°40'554997407.8
2016-Sep-27 19:33N 31°58' E 120°26'6629777.8
2016-Sep-27 19:33N 31°25' E 121°33'813911.6
2016-Sep-27 19:33N 31°29' E 121°25'34749898.6
2016-Sep-27 19:32N 25°59' E 119°27'34822355.1
2016-Sep-27 19:31N 31°32' E 121°20'4239.5
2016-Sep-27 19:30N 31°30' E 121°23'97174838.9
2016-Sep-27 19:30N 30°00' E 122°06'4896271174.4
2016-Sep-27 19:29S 20°09' E 057°30'4243104627.4
2016-Sep-27 19:27N 23°04' E 113°29'61523560.8
2016-Sep-27 19:25N 29°50' E 122°06'489082648.2
2016-Sep-27 19:22S 20°09' E 057°30'49141022.2
2016-Sep-27 14:33N 31°32' E 121°20'34883495.6
2016-Sep-27 14:33N 25°58' E 119°27'356256073.1
2016-Sep-27 14:33N 31°43' E 121°08'55568881.6
2016-Sep-27 14:33N 23°22' E 116°40'54635128.6
2016-Sep-27 14:32N 31°56' E 120°07'15469447.8
2016-Sep-27 14:32N 30°00' E 122°06'62269983.5
2016-Sep-27 14:31N 23°04' E 113°29'65965940.0
2016-Sep-27 14:30N 31°38' E 121°15'12506.1
2016-Sep-27 14:29N 31°29' E 121°25'115.4
2016-Sep-27 14:25N 31°28' E 121°25'59813.0
2016-Sep-27 14:20N 31°59' E 120°26'701375.3
2016-Sep-27 14:17N 31°15' E 121°31'2534.8
2016-Sep-27 13:33N 31°37' E 121°16'483908.5
2016-Sep-27 13:33N 31°59' E 120°26'7017917.8
2016-Sep-27 13:32N 31°15' E 121°29'815094.4
2016-Sep-27 13:31N 30°00' E 122°06'2809067.5
2016-Sep-27 13:30N 25°58' E 119°27'35612932.5
2016-Sep-27 13:28N 31°43' E 121°08'660113085.5
2016-Sep-27 13:28N 23°04' E 113°29'65887707.1
2016-Sep-27 13:27N 31°32' E 121°20'732031.7
2016-Sep-27 13:25N 31°59' E 120°00'893047.6
2016-Sep-27 13:23N 31°15' E 121°31'15312.8
2016-Sep-27 13:20N 31°29' E 121°25'14142.3
2016-Sep-27 13:14N 31°39' E 121°13'12185.4
2016-Sep-27 13:10N 31°30' E 121°23'55070676.1
2016-Sep-27 13:10N 23°22' E 116°40'1 0.3
2016-Sep-27 10:33N 23°21' E 116°40'549282128.0
2016-Sep-27 10:33N 31°31' E 121°18'61355.8
2016-Sep-27 10:33N 31°30' E 121°25'16904.9
2016-Sep-27 10:32N 31°15' E 121°31'4912589441.4
2016-Sep-27 10:31S 20°09' E 057°30'49161361232.0
2016-Sep-27 10:31N 31°22' E 121°30'49161361229.6
2016-Sep-27 10:31S 20°09' E 057°30'4913340159.5
2016-Sep-27 10:30N 31°32' E 121°20'34843180.7
2016-Sep-27 10:30N 25°58' E 119°27'34737876.8
2016-Sep-27 10:29N 31°30' E 121°23'3759.0
2016-Sep-27 10:29N 31°28' E 121°25'152077.4
2016-Sep-27 10:28N 31°39' E 121°13'451556.3
2016-Sep-27 10:27N 31°59' E 120°26'1466659.3
2016-Sep-27 10:25N 30°00' E 122°06'999173.5
2016-Sep-27 10:25N 31°31' E 121°19'10576.6
2016-Sep-27 10:24N 31°26' E 121°29'5320.1
2016-Sep-27 10:23N 31°29' E 121°25'65932946.3
2016-Sep-27 10:21N 23°04' E 113°29'6577881.5
2016-Sep-27 10:16N 31°20' E 121°33'34135.1
2016-Sep-27 00:33N 25°58' E 119°27'328196508.8
2016-Sep-27 00:33N 31°13' E 121°09'215508.0
2016-Sep-27 00:33N 31°29' E 121°25'172197.0
2016-Sep-27 00:32N 31°41' E 121°11'11021930.8
2016-Sep-27 00:32N 29°59' E 121°56'4888366583.6
2016-Sep-27 00:31S 20°09' E 057°29'4896979227.3
2016-Sep-27 00:31N 30°00' E 122°06'50085745.4
2016-Sep-27 00:31N 23°06' E 116°53'4407151108.3
2016-Sep-27 00:29S 20°09' E 057°29'4914769086.6
2016-Sep-27 00:29N 31°32' E 121°20'70251404.9
2016-Sep-27 00:29N 31°57' E 120°03'8310696.9
2016-Sep-27 00:28N 31°21' E 121°31'65624357.6
2016-Sep-27 00:26N 23°04' E 113°29'63810636.5
2016-Sep-27 00:23N 32°00' E 119°59'132.2
2016-Sep-27 00:20N 31°59' E 120°00'6387000.7
2016-Sep-27 00:15N 23°04' E 113°29'6584493.1
2016-Sep-27 00:06N 31°23' E 121°31'34396.7
2016-Sep-26 20:33N 25°58' E 119°27'364187081.5
2016-Sep-26 20:33N 31°59' E 120°19'577952.8
2016-Sep-26 20:33N 31°33' E 121°19'101555.6
2016-Sep-26 20:32N 31°27' E 121°29'6619902.2
2016-Sep-26 20:32N 31°59' E 120°21'48852930790.2
2016-Sep-26 20:32S 20°09' E 057°29'4872701569.5
2016-Sep-26 20:31N 31°57' E 120°06'836499.3
2016-Sep-26 20:31N 31°15' E 121°31'12975.8
2016-Sep-26 20:30N 31°27' E 121°28'111200534.8
2016-Sep-26 20:30N 29°41' E 122°07'489110115.9
2016-Sep-26 20:30N 37°49' E 121°25'35716707.6
2016-Sep-26 20:28N 31°57' E 120°13'6237108.5
2016-Sep-26 20:28N 31°32' E 121°20'4470.6
2016-Sep-26 20:28N 31°30' E 121°24'65920099.1
2016-Sep-26 20:26N 23°04' E 113°29'1024204854.3
2016-Sep-26 20:26N 38°43' E 121°26'52453848.6
2016-Sep-26 20:25N 30°00' E 122°06'951790.2
2016-Sep-26 20:22N 31°29' E 121°25'6597676.4
2016-Sep-26 20:17N 23°04' E 113°29'610849.4
2016-Sep-26 19:33N 29°41' E 122°07'26447554.6
2016-Sep-26 19:33N 25°58' E 119°27'367661340.2
2016-Sep-26 19:33N 32°02' E 120°24'65155822.5
2016-Sep-26 19:32N 23°04' E 113°29'65948446.5
2016-Sep-26 19:32N 31°38' E 121°15'5294270.3
2016-Sep-26 19:32N 31°58' E 120°18'48821757487.1
2016-Sep-26 19:31S 20°09' E 057°29'4896734429.1
2016-Sep-26 19:31N 30°00' E 122°06'9738753.3
2016-Sep-26 19:31N 31°30' E 121°24'11775.7
2016-Sep-26 19:30N 31°21' E 121°31'4916285449.2
2016-Sep-26 19:29S 20°09' E 057°29'4914589636.4
2016-Sep-26 19:28N 31°32' E 121°20'55913409.5
2016-Sep-26 19:26N 23°05' E 116°54'54812099.8
2016-Sep-26 19:23N 31°15' E 121°31'81424.8
2016-Sep-26 19:23N 31°23' E 121°30'865.6
2016-Sep-26 19:16N 31°29' E 121°25'4171.0
2016-Sep-26 19:15N 31°31' E 121°21'5414.7
2016-Sep-26 15:33N 31°59' E 120°26'371924.9
2016-Sep-26 15:32N 31°44' E 121°06'49101473056.5
2016-Sep-26 15:32S 20°09' E 057°29'44055286044.7
2016-Sep-26 15:32N 23°05' E 116°50'55599908.5
2016-Sep-26 15:32N 31°21' E 121°31'154060.2
2016-Sep-26 15:31N 31°32' E 121°20'49134422125.5
2016-Sep-26 15:31S 20°09' E 057°29'48892933127.5
2016-Sep-26 15:31N 29°58' E 121°58'71080.4
2016-Sep-26 15:31N 30°00' E 122°06'28021937.8
2016-Sep-26 15:30N 25°58' E 119°27'36919531.9
2016-Sep-26 15:29N 23°04' E 113°29'647211614.3
2016-Sep-26 15:29N 31°58' E 120°20'41421.9
2016-Sep-26 15:23N 31°45' E 121°06'660113162.2
2016-Sep-26 15:23N 23°04' E 113°29'28144.0
2016-Sep-26 15:11N 22°36' E 113°25'386236.8
2016-Sep-26 13:33N 25°58' E 119°27'35712616.7
2016-Sep-26 13:31N 31°45' E 121°04'11713629.9
2016-Sep-26 13:31N 30°00' E 122°06'9743638.7
2016-Sep-26 13:31N 31°30' E 121°24'573136.0
2016-Sep-26 13:30N 31°59' E 120°26'4888439958.0
2016-Sep-26 13:29S 20°09' E 057°29'026.2
2016-Sep-26 13:28S 20°09' E 057°29'4913453551.7
2016-Sep-26 13:28N 31°32' E 121°20'664509.5
2016-Sep-26 13:27N 31°57' E 120°07'63953467.9
2016-Sep-26 13:26N 23°04' E 113°29'65911029.0
2016-Sep-26 13:23N 31°47' E 121°01'6599881.0
2016-Sep-26 13:19N 23°04' E 113°29'660377.1
2016-Sep-26 11:34N 31°39' E 121°14'35438606.2
2016-Sep-26 11:33N 25°58' E 119°27'4630260457.2
2016-Sep-26 11:32S 20°09' E 057°29'023.4
2016-Sep-26 11:31S 20°09' E 057°29'4896518414.8
2016-Sep-26 11:31N 30°00' E 122°06'1145132.4
2016-Sep-26 11:29N 31°43' E 121°08'15500.4
2016-Sep-26 11:28N 31°32' E 121°20'15527.5
2016-Sep-26 11:26N 31°21' E 121°31'65626250.0
2016-Sep-26 11:24N 23°04' E 113°29'65021669.4
2016-Sep-26 11:23N 31°59' E 120°26'702977.1
2016-Sep-26 11:21N 31°15' E 121°31'151933.3
2016-Sep-26 11:21N 31°29' E 121°25'4 1.5
2016-Sep-26 08:33N 31°27' E 121°29'34654197.7
2016-Sep-26 08:33N 25°58' E 119°27'718861324.0
2016-Sep-26 08:33N 37°49' E 121°21'974166954.0
2016-Sep-26 08:33N 23°04' E 113°29'659169337.4
2016-Sep-26 08:32N 31°34' E 121°19'51283.7
2016-Sep-26 08:32N 31°30' E 121°24'5910650.8
2016-Sep-26 08:32N 32°01' E 120°24'488817597350.3
2016-Sep-26 08:32S 20°09' E 057°29'49155898499.9
2016-Sep-26 08:32N 31°32' E 121°22'491617695830.2
2016-Sep-26 08:32S 20°09' E 057°29'4896267075.4
2016-Sep-26 08:31N 30°00' E 122°06'958815.0
2016-Sep-26 08:30N 31°29' E 121°25'6296.3
2016-Sep-26 08:29N 31°32' E 121°20'141729.9
2016-Sep-26 08:28N 31°22' E 121°30'663357.5
2016-Sep-26 08:27N 31°59' E 120°26'15107.4
2016-Sep-26 08:19N 31°57' E 120°09'6409974.8
2016-Sep-26 08:15N 23°04' E 113°29'65813313.6
2016-Sep-26 08:12N 31°30' E 121°23'6311.1
2016-Sep-26 02:33N 31°57' E 120°17'35667479.9
2016-Sep-26 02:33N 37°49' E 121°22'38819395.6
2016-Sep-26 02:31N 31°22' E 121°30'876786.4
2016-Sep-26 02:31N 30°00' E 122°06'1002902.8
2016-Sep-26 02:28N 31°32' E 121°20'603483.5
2016-Sep-26 02:27N 31°56' E 120°15'4878109076.3
2016-Sep-26 02:25S 20°09' E 057°29'4916376526.4
2016-Sep-26 02:24N 31°30' E 121°24'721099.5
2016-Sep-26 02:20N 31°57' E 120°05'743582.0
2016-Sep-26 02:19N 31°29' E 121°25'8284.7
2016-Sep-26 02:17N 31°22' E 121°30'69028867.9
2016-Sep-26 02:16N 22°09' E 113°49'101186661.2
2016-Sep-26 02:15N 37°44' E 121°13'9661396.5
2016-Sep-26 01:33N 23°04' E 113°29'65214568.9
2016-Sep-26 01:31N 31°15' E 121°31'1970152.1
2016-Sep-26 01:31N 31°32' E 121°20'491497194.5
2016-Sep-26 01:28S 20°09' E 057°29'491668592.1
2016-Sep-26 01:23N 31°30' E 121°24'11594.9
2016-Sep-26 01:22N 31°21' E 121°30'122.3
2016-Sep-26 01:20N 31°22' E 121°30'88694.1
2016-Sep-26 01:12N 30°00' E 122°06'4653797.2
2016-Sep-26 01:05N 37°43' E 121°12'51329567.2
2016-Sep-26 00:33S 20°09' E 057°29'42431697367.4
2016-Sep-26 00:33N 23°04' E 113°29'65821528.1
2016-Sep-26 00:31N 31°32' E 121°20'10011247.0
2016-Sep-26 00:30N 30°00' E 122°06'62212870.2
2016-Sep-26 00:27N 23°04' E 113°29'439.1
2016-Sep-26 00:21N 23°00' E 113°31'6611189570.2
2016-Sep-26 00:21N 31°29' E 121°25'3711953.7
2016-Sep-26 00:09N 37°40' E 121°08'3446318.0
2016-Sep-26 00:06N 31°58' E 120°25'413162.4
2016-Sep-25 21:33N 38°47' E 121°34'103035329.3
2016-Sep-25 21:32N 23°04' E 113°29'65678732.6
2016-Sep-25 21:31N 31°21' E 121°30'41879.0
2016-Sep-25 21:31N 31°23' E 121°34'875420.1
2016-Sep-25 21:30N 30°00' E 122°06'96114608.6
2016-Sep-25 21:30N 31°29' E 121°25'4916224038.8
2016-Sep-25 21:29S 20°09' E 057°29'4914552793.8
2016-Sep-25 21:28N 31°32' E 121°20'192327.9
2016-Sep-25 21:28N 31°15' E 121°31'81357.0
2016-Sep-25 21:14N 29°58' E 121°59'9726.0
2016-Sep-25 17:30N 31°30' E 121°24'4916333904.6
2016-Sep-25 17:29S 20°09' E 057°29'4916491586.1
2016-Sep-25 17:28N 31°22' E 121°30'141521.7
2016-Sep-25 17:28N 31°32' E 121°20'61325.8
2016-Sep-25 17:27N 31°29' E 121°25'65918976.2
2016-Sep-25 17:25N 23°04' E 113°29'64954330.4
2016-Sep-25 17:25N 31°58' E 120°25'711485.3
2016-Sep-25 17:22N 31°15' E 121°31'65312564.0
2016-Sep-25 17:19N 23°01' E 113°32'6105983.7
2016-Sep-25 17:13N 29°44' E 122°03'1013960.7
2016-Sep-25 17:11N 31°21' E 121°31'1423.0
2016-Sep-25 16:34N 31°32' E 121°20'5211792.6
2016-Sep-25 16:33N 31°58' E 120°26'15523227.9
2016-Sep-25 16:33N 29°49' E 122°05'918631.6
2016-Sep-25 16:32N 31°15' E 121°31'151677.8
2016-Sep-25 16:32N 31°29' E 121°25'91064.8
2016-Sep-25 16:31N 31°22' E 121°30'109352.4
2016-Sep-25 16:31N 31°30' E 121°24'66043195.2
2016-Sep-25 16:30N 23°01' E 113°32'4230.4
2016-Sep-25 16:29N 23°04' E 113°29'4243694377.6
2016-Sep-25 16:29S 20°09' E 057°29'424324999.2
2016-Sep-25 16:19N 22°55' E 113°36'1154.7
2016-Sep-25 16:07N 23°04' E 113°29'6181120.3
2016-Sep-25 15:34N 29°55' E 122°05'61929298.2
2016-Sep-25 15:32N 22°57' E 113°35'4244587641.8
2016-Sep-25 15:32S 20°09' E 057°29'4916769438.0
2016-Sep-25 15:31N 31°22' E 121°30'65617367.6
2016-Sep-25 15:29N 23°04' E 113°29'65929284.4
2016-Sep-25 15:28N 31°29' E 121°25'681.5
2016-Sep-25 15:24N 31°32' E 121°20'659148275.6
2016-Sep-25 15:23N 23°01' E 113°32'66014573.3
2016-Sep-25 15:21N 31°30' E 121°24'16197.0
2016-Sep-25 15:16N 31°15' E 121°31'61320.1
2016-Sep-25 15:16N 31°21' E 121°31'65616753.1
2016-Sep-25 15:13N 23°04' E 113°29'658975.0
2016-Sep-25 14:33N 31°32' E 121°20'658473624.5
2016-Sep-25 14:33N 23°04' E 113°29'4243299535.4
2016-Sep-25 14:32S 20°09' E 057°29'4239339118.3
2016-Sep-25 14:31N 23°03' E 113°25'115815.2
2016-Sep-25 14:31N 22°57' E 113°35'5152.7
2016-Sep-25 14:29N 23°01' E 113°32'660158366.7
2016-Sep-25 14:29N 31°30' E 121°24'111261.9
2016-Sep-25 14:28N 31°22' E 121°30'65622497.0
2016-Sep-25 14:26N 23°04' E 113°29'61219502.5
2016-Sep-25 14:25N 29°57' E 121°54'804007.6
2016-Sep-25 14:23N 31°15' E 121°31'15136.0
2016-Sep-25 14:17N 31°29' E 121°25'4916155249.7
2016-Sep-25 14:15S 20°09' E 057°30'491674987.4
2016-Sep-25 14:11N 31°21' E 121°31'2182.4
2016-Sep-25 14:10N 31°20' E 121°33'20821292.7
2016-Sep-25 12:33N 01°53' E 102°24'2971289072.9
2016-Sep-25 12:33S 20°09' E 057°30'491617698470.3
2016-Sep-25 12:33N 31°29' E 121°25'4916280934.8
2016-Sep-25 12:32S 20°09' E 057°29'4896155991.5
2016-Sep-25 12:30N 30°00' E 122°06'10010283.6
2016-Sep-25 12:29N 31°32' E 121°20'4436.4
2016-Sep-25 12:29N 31°30' E 121°24'65938878.5
2016-Sep-25 12:28N 23°04' E 113°29'65634234.6
2016-Sep-25 12:27N 31°21' E 121°31'6112.7
2016-Sep-25 12:23N 31°15' E 121°31'12137.1
2016-Sep-25 12:18N 31°26' E 121°25'65817284.4
2016-Sep-25 12:16N 23°01' E 113°32'661938.5
2016-Sep-25 11:33N 31°41' E 121°12'4912609820.1
2016-Sep-25 11:33S 20°09' E 057°30'025.0
2016-Sep-25 11:32S 20°09' E 057°29'4916804424.8
2016-Sep-25 11:31N 31°22' E 121°30'14361.0
2016-Sep-25 11:29N 31°32' E 121°20'218441.9
2016-Sep-25 11:29N 31°13' E 121°30'123.0
2016-Sep-25 11:26N 31°14' E 121°30'130.3
2016-Sep-25 11:23N 31°15' E 121°31'15370.8
2016-Sep-25 11:21N 31°29' E 121°25'12433.7
2016-Sep-25 11:19N 31°23' E 121°37'66128345.0
2016-Sep-25 11:18N 23°04' E 113°29'62220735.6
2016-Sep-25 11:16N 30°00' E 122°06'861003.3
2016-Sep-25 11:11N 31°21' E 121°31'1727.5
2016-Sep-25 10:33N 31°35' E 121°18'66164279.8
2016-Sep-25 10:33N 23°01' E 113°32'65773944.5
2016-Sep-25 10:32N 31°21' E 121°31'49161608858.7
2016-Sep-25 10:32S 20°09' E 057°29'4916393257.2
2016-Sep-25 10:31N 31°30' E 121°24'4916268123.5
2016-Sep-25 10:30S 20°09' E 057°30'42431272999.0
2016-Sep-25 10:30N 23°04' E 113°29'65851485.2
2016-Sep-25 10:29N 31°32' E 121°20'54915.5
2016-Sep-25 10:29N 31°29' E 121°25'6595465.3
2016-Sep-25 10:22N 23°04' E 113°29'65510252.4
2016-Sep-25 10:18N 31°17' E 121°34'566.9
2016-Sep-25 10:13N 31°22' E 121°30'580.5
2016-Sep-25 10:09N 31°17' E 121°34'81939.3
2016-Sep-25 10:04N 30°00' E 122°06'96186.1
2016-Sep-25 09:33N 31°30' E 121°26'491717701482.3
2016-Sep-25 09:33S 20°09' E 057°30'4917708039.6
2016-Sep-25 09:32N 31°20' E 121°33'302750.7
2016-Sep-25 09:32N 31°42' E 121°09'191175.2
2016-Sep-25 09:31N 31°29' E 121°25'65935404.2
2016-Sep-25 09:30N 23°04' E 113°29'6581184505.2
2016-Sep-25 09:30N 31°32' E 121°20'41848572.9
2016-Sep-25 09:29N 24°52' E 119°01'418107538.1
2016-Sep-25 09:29N 31°32' E 121°20'49141608134.6
2016-Sep-25 09:29S 20°09' E 057°29'491677962.8
2016-Sep-25 09:25N 31°21' E 121°31'864507.2
2016-Sep-25 09:24N 30°00' E 122°06'811934.1
2016-Sep-25 09:21N 31°15' E 121°31'6175.9
2016-Sep-25 09:19N 31°22' E 121°30'101110.3
2016-Sep-25 09:19N 31°30' E 121°24'1171.5
2016-Sep-25 09:09N 31°21' E 121°31'679.0
2016-Sep-25 09:05N 31°23' E 121°37'423278.8
2016-Sep-25 07:34N 24°45' E 118°54'4562421100.5
2016-Sep-25 07:33S 20°09' E 057°30'4917411675.1
2016-Sep-25 07:32N 31°26' E 121°29'4917842973.2
2016-Sep-25 07:32S 20°09' E 057°29'4916411560.1
2016-Sep-25 07:31N 31°22' E 121°30'61453.7
2016-Sep-25 07:31N 31°15' E 121°31'814532.6
2016-Sep-25 07:30N 30°00' E 122°06'1006540.5
2016-Sep-25 07:29N 31°32' E 121°20'610017.3
2016-Sep-25 07:29N 31°29' E 121°25'135208.2
2016-Sep-25 07:29N 31°18' E 121°34'4115.1
2016-Sep-25 07:27N 31°21' E 121°31'11757.3
2016-Sep-25 07:26N 31°30' E 121°24'484.0
2016-Sep-25 07:23N 31°32' E 121°20'65862341.0
2016-Sep-25 07:23N 23°04' E 113°29'6591186809.1
2016-Sep-25 07:23N 31°39' E 121°13'65913719.1
2016-Sep-25 07:20N 23°04' E 113°29'4213.9
2016-Sep-25 07:18N 23°01' E 113°32'661240.1
2016-Sep-25 04:33N 31°39' E 121°13'4913477974.5
2016-Sep-25 04:33S 20°09' E 057°30'4895800979.7
2016-Sep-25 04:32N 32°04' E 120°30'5811080.3
2016-Sep-25 04:32N 31°29' E 121°25'4916842811.8
2016-Sep-25 04:32S 20°09' E 057°29'4916376534.6
2016-Sep-25 04:31N 31°22' E 121°30'6580.7
2016-Sep-25 04:30N 31°16' E 121°33'171488.3
2016-Sep-25 04:30N 31°30' E 121°24'113509.3
2016-Sep-25 04:30N 31°21' E 121°31'195261.9
2016-Sep-25 04:29N 31°36' E 121°17'66072039.8
2016-Sep-25 04:29N 23°01' E 113°32'659263588.4
2016-Sep-25 04:29N 31°32' E 121°20'054.8
2016-Sep-25 04:28N 31°32' E 121°20'10012818.6
2016-Sep-25 04:28N 30°00' E 122°06'1121606.0
2016-Sep-25 04:23N 31°42' E 121°10'1261082.1
2016-Sep-25 04:16N 29°53' E 122°22'2027544.5
2016-Sep-25 00:33N 01°12' E 103°51'1627836824.0
2016-Sep-25 00:33N 24°21' E 118°19'162307.7
2016-Sep-25 00:33N 24°10' E 118°07'483347681.7
2016-Sep-25 00:33N 31°50' E 120°55'19499.9
2016-Sep-25 00:30N 31°40' E 121°14'9304.5
2016-Sep-25 00:28N 31°32' E 121°20'1006204.9
2016-Sep-25 00:28N 30°00' E 122°06'872212.4
2016-Sep-25 00:25N 31°22' E 121°30'10432.8
2016-Sep-25 00:24N 31°30' E 121°24'563197.4
2016-Sep-25 00:23N 31°58' E 120°27'581490.1
2016-Sep-25 00:20N 31°29' E 121°25'941279.6
2016-Sep-25 00:16N 29°58' E 121°54'10762.6
2016-Sep-24 22:33N 31°40' E 121°14'466419574.9
2016-Sep-24 22:33N 24°24' E 118°05'46756009.1
2016-Sep-24 22:33N 31°42' E 121°10'66033922.4
2016-Sep-24 22:32N 23°04' E 113°29'61985657.7
2016-Sep-24 22:31N 29°52' E 122°08'406146141.4
2016-Sep-24 22:31N 24°09' E 118°06'46954463.1
2016-Sep-24 22:31N 31°21' E 121°30'65710705.0
2016-Sep-24 22:27N 23°01' E 113°31'629251523.2
2016-Sep-24 22:27N 29°53' E 122°22'1131503.9
2016-Sep-24 22:22N 31°32' E 121°20'467.4
2016-Sep-24 22:19N 31°30' E 121°24'974848.2
2016-Sep-24 22:18N 30°00' E 122°06'806123.5
2016-Sep-24 22:17N 31°14' E 121°30'7016703.9
2016-Sep-24 22:17N 31°58' E 120°27'662226.6
2016-Sep-24 22:15N 31°21' E 121°30'467675.4
2016-Sep-24 21:33N 24°10' E 118°07'1658621.5
2016-Sep-24 21:33N 24°24' E 117°58'38799496.6
2016-Sep-24 21:33N 29°44' E 122°03'1225559.5
2016-Sep-24 21:32N 31°38' E 121°14'1214491.2
2016-Sep-24 21:30N 29°53' E 122°22'161360.7
2016-Sep-24 21:29N 30°00' E 122°06'971035.1
2016-Sep-24 21:24N 31°30' E 121°24'297.9
2016-Sep-24 21:23N 31°29' E 121°25'5441.8
2016-Sep-24 21:22N 31°32' E 121°20'1412929.5
2016-Sep-24 21:22N 31°21' E 121°31'65643751.5
2016-Sep-24 21:21N 23°04' E 113°29'66052830.1
2016-Sep-24 21:20N 31°40' E 121°14'662103539.9
2016-Sep-24 21:20N 23°01' E 113°31'65268983.2
2016-Sep-24 21:19N 31°58' E 120°27'667150.1
2016-Sep-24 21:19N 31°22' E 121°30'34134.9
2016-Sep-24 21:04N 31°46' E 121°03'12 8.0
2016-Sep-24 19:33N 31°38' E 121°14'12047846.2
2016-Sep-24 19:33N 29°47' E 122°04'12210209.9
2016-Sep-24 19:33N 31°40' E 121°12'1207.2
2016-Sep-24 19:32N 31°41' E 121°13'1361.3
2016-Sep-24 19:32N 31°40' E 121°14'696104370.7
2016-Sep-24 19:32N 22°08' E 113°49'68985476.2
2016-Sep-24 19:31N 31°58' E 120°27'668136.7
2016-Sep-24 19:31N 31°22' E 121°30'1425116.8
2016-Sep-24 19:31N 31°32' E 121°20'4207.8
2016-Sep-24 19:30N 31°30' E 121°24'113550.3
2016-Sep-24 19:30N 31°21' E 121°31'862098.3
2016-Sep-24 19:27N 30°00' E 122°06'41564890.7
2016-Sep-24 19:27N 24°07' E 118°03'2588278.9
2016-Sep-24 19:25N 23°01' E 113°31'11120.2
2016-Sep-24 19:19N 22°54' E 113°22'671114972.6
2016-Sep-24 19:19N 31°29' E 121°25'65931629.3
2016-Sep-24 19:18N 23°04' E 113°29'6284853.1
2016-Sep-24 19:10N 29°53' E 122°22'99836.2
2016-Sep-24 19:03N 31°21' E 121°31'2245.4
2016-Sep-24 18:33N 31°38' E 121°14'4523036.7
2016-Sep-24 18:33N 31°58' E 120°27'2215501.3
2016-Sep-24 18:33N 31°59' E 120°01'16735285.2
2016-Sep-24 18:33N 29°52' E 122°08'11519704.9
2016-Sep-24 18:33N 31°38' E 121°15'12926.5
2016-Sep-24 18:32N 31°29' E 121°25'65932494.1
2016-Sep-24 18:31N 23°04' E 113°29'656472484.2
2016-Sep-24 18:31N 31°21' E 121°31'231905.9
2016-Sep-24 18:30N 31°39' E 121°13'10810805.7
2016-Sep-24 18:29N 30°00' E 122°06'8914502.5
2016-Sep-24 18:29N 31°24' E 121°31'2152.2
2016-Sep-24 18:28N 31°22' E 121°30'1412558.4
2016-Sep-24 18:28N 31°32' E 121°20'65911137.7
2016-Sep-24 18:24N 23°01' E 113°31'65724898.2
2016-Sep-24 18:23N 31°21' E 121°30'6627494.8
2016-Sep-24 18:17N 23°02' E 113°21'665906.8
2016-Sep-24 17:33N 31°38' E 121°14'6622383271.9
2016-Sep-24 17:33N 23°04' E 113°25'659148272.2
2016-Sep-24 17:33N 31°21' E 121°31'235834.4
2016-Sep-24 17:33N 31°39' E 121°13'11244758.5
2016-Sep-24 17:33N 29°55' E 122°03'10777342.4
2016-Sep-24 17:33N 31°35' E 121°18'492070.7
2016-Sep-24 17:31N 31°58' E 120°27'161004.9
2016-Sep-24 17:30N 31°57' E 120°08'64174441.8
2016-Sep-24 17:30N 23°01' E 113°31'62364057.8
2016-Sep-24 17:29N 30°00' E 122°06'9524553.3
2016-Sep-24 17:29N 31°29' E 121°25'9531.8
2016-Sep-24 17:28N 31°22' E 121°30'145577.9
2016-Sep-24 17:28N 31°32' E 121°20'1451718.2
2016-Sep-24 17:28N 31°21' E 121°31'656393745.2
2016-Sep-24 17:28N 23°04' E 113°29'660731.6
2016-Sep-24 16:33N 31°40' E 121°13'10812190.1
2016-Sep-24 16:33N 29°57' E 121°54'612169591.2
2016-Sep-24 16:33N 23°03' E 113°30'659395194.0
2016-Sep-24 16:33N 31°32' E 121°21'9884.2
2016-Sep-24 16:32N 31°39' E 121°14'5421412.9
2016-Sep-24 16:32N 31°56' E 120°14'737733.3
2016-Sep-24 16:31N 31°22' E 121°30'6521230.6
2016-Sep-24 16:31N 31°58' E 120°27'526703.6
2016-Sep-24 16:31N 31°32' E 121°20'5637.5
2016-Sep-24 16:30N 31°29' E 121°25'66039599.0
2016-Sep-24 16:29N 23°01' E 113°31'623373699.2
2016-Sep-24 16:29N 30°00' E 122°06'871253.8
2016-Sep-24 16:25N 31°22' E 121°30'15131.9
2016-Sep-24 16:18N 31°33' E 121°20'65814999.0
2016-Sep-24 16:16N 23°04' E 113°29'660388.0
2016-Sep-24 14:34N 31°40' E 121°13'4913769067.3
2016-Sep-24 14:33S 20°09' E 057°29'4243381908.1
2016-Sep-24 14:32N 23°04' E 113°29'4243436465.9
2016-Sep-24 14:32S 20°09' E 057°29'4916299983.8
2016-Sep-24 14:31N 31°29' E 121°25'155379.3
2016-Sep-24 14:31N 31°40' E 121°13'108727.7
2016-Sep-24 14:31N 31°32' E 121°20'14648.8
2016-Sep-24 14:29N 31°21' E 121°31'11485.5
2016-Sep-24 14:28N 31°30' E 121°24'5650455.5
2016-Sep-24 14:28N 31°58' E 120°27'652781804.0
2016-Sep-24 14:28N 23°01' E 113°31'6592792.4
2016-Sep-24 14:14N 31°32' E 121°20'10 5.7
2016-Sep-24 12:33N 31°40' E 121°13'49131965389.4
2016-Sep-24 12:33S 20°09' E 057°29'0 0.0
2016-Sep-24 12:32S 20°09' E 057°29'49161264123.6
2016-Sep-24 12:32N 31°21' E 121°31'026.8
2016-Sep-24 12:31N 31°22' E 121°30'6639323.2
2016-Sep-24 12:31N 31°58' E 120°27'6521173045.7
2016-Sep-24 12:31N 23°01' E 113°32'661396886.6
2016-Sep-24 12:31N 31°40' E 121°13'137.9
2016-Sep-24 12:29N 31°40' E 121°12'15356.6
2016-Sep-24 12:27N 31°29' E 121°25'6598208.4
2016-Sep-24 12:22N 23°04' E 113°29'65933402.2
2016-Sep-24 12:21N 31°30' E 121°24'971485.5
2016-Sep-24 12:17N 30°00' E 122°06'17272.2
2016-Sep-24 12:13N 29°43' E 122°02'12474.6
2016-Sep-24 10:34N 31°40' E 121°13'0555.4
2016-Sep-24 10:33N 31°40' E 121°13'4913769042.6
2016-Sep-24 10:33S 20°09' E 057°29'0 6.8
2016-Sep-24 10:33S 20°09' E 057°29'49141768937.9
2016-Sep-24 10:33N 31°32' E 121°20'142261.0
2016-Sep-24 10:32N 31°21' E 121°31'42122645.5
2016-Sep-24 10:31N 24°40' E 119°05'35457930.0
2016-Sep-24 10:31N 29°55' E 122°07'10326357.3
2016-Sep-24 10:31N 31°30' E 121°24'5620140.6
2016-Sep-24 10:31N 31°58' E 120°27'65233999.2
2016-Sep-24 10:29N 23°01' E 113°32'66410774.4
2016-Sep-24 10:26N 31°23' E 121°41'9581.5
2016-Sep-24 10:25N 31°21' E 121°30'9501.5
2016-Sep-24 10:24N 31°29' E 121°25'965641.7
2016-Sep-24 10:23N 30°00' E 122°06'62215132.5
2016-Sep-24 10:20N 23°04' E 113°29'6572652.6
2016-Sep-24 10:05N 31°26' E 121°25'1630.7
2016-Sep-24 09:33N 31°40' E 121°13'10816262.1
2016-Sep-24 09:33N 29°59' E 122°02'9935785.8
2016-Sep-24 09:33N 31°32' E 121°20'7427.5
2016-Sep-24 09:32N 31°26' E 121°25'17783.6
2016-Sep-24 09:31N 31°40' E 121°13'4913680313.9
2016-Sep-24 09:30S 20°09' E 057°29'0 3.4
2016-Sep-24 09:30S 20°09' E 057°29'4916983208.7
2016-Sep-24 09:30N 31°21' E 121°31'65742258.4
2016-Sep-24 09:29N 23°01' E 113°32'6609620.7
2016-Sep-24 09:25N 31°29' E 121°25'251.7
2016-Sep-24 09:23N 31°30' E 121°24'9749871.3
2016-Sep-24 09:23N 30°00' E 122°06'875886.5
2016-Sep-24 09:22N 31°22' E 121°30'656590608.1
2016-Sep-24 09:22N 23°04' E 113°29'3147445.9
2016-Sep-24 09:19N 24°41' E 118°56'56330.5
2016-Sep-24 09:09N 24°24' E 117°58'46983.8
2016-Sep-24 03:33N 31°40' E 121°14'9587.7
2016-Sep-24 03:32N 31°32' E 121°20'4257.3
2016-Sep-24 03:31N 31°30' E 121°24'141592.1
2016-Sep-24 03:31N 31°40' E 121°13'491317685889.6
2016-Sep-24 03:31S 20°08' E 057°29'4888567655.2
2016-Sep-24 03:30N 31°58' E 120°27'537697.8
2016-Sep-24 03:30N 31°31' E 121°21'43338.1
2016-Sep-24 03:30N 31°30' E 121°25'1661.4
2016-Sep-24 03:30N 31°30' E 121°24'292.2
2016-Sep-24 03:29N 31°29' E 121°25'4916632093.3
2016-Sep-24 03:28S 20°09' E 057°30'491645261.3
2016-Sep-24 03:22N 31°21' E 121°31'0116.2
2016-Sep-24 03:22N 31°22' E 121°30'87981.0
2016-Sep-24 03:16N 30°00' E 122°06'109152.5
2016-Sep-24 02:33N 31°40' E 121°14'4687.2
2016-Sep-24 02:33N 31°36' E 121°16'101392.6
2016-Sep-24 02:33N 31°30' E 121°25'52025.8
2016-Sep-24 02:32N 31°32' E 121°20'5211033.3
2016-Sep-24 02:32N 31°58' E 120°27'48892933202.4
2016-Sep-24 02:32S 20°09' E 057°30'4916931396.0
2016-Sep-24 02:32N 31°30' E 121°24'058.0
2016-Sep-24 02:31N 31°30' E 121°24'49168848107.1
2016-Sep-24 02:31S 20°09' E 057°30'49131179184.1
2016-Sep-24 02:31N 31°40' E 121°13'155369.7
2016-Sep-24 02:31N 31°29' E 121°25'9162.9
2016-Sep-24 02:28N 31°22' E 121°30'1 6.3
2016-Sep-24 02:21N 31°22' E 121°30'1051615.0
2016-Sep-24 02:18N 29°42' E 122°05'126170.0
2016-Sep-24 01:33N 31°40' E 121°14'9655.8
2016-Sep-24 01:32N 31°32' E 121°20'4914982716.9
2016-Sep-24 01:32S 20°09' E 057°30'48872931961.0
2016-Sep-24 01:32N 29°47' E 122°04'1099591.0
2016-Sep-24 01:31N 31°30' E 121°24'138014.4
2016-Sep-24 01:31N 31°40' E 121°13'152988.5
2016-Sep-24 01:31N 31°29' E 121°25'92912.6
2016-Sep-24 01:31N 31°22' E 121°30'6614747.7
2016-Sep-24 01:30N 31°58' E 120°27'563325.5
2016-Sep-24 01:29N 31°30' E 121°24'961661.5
2016-Sep-24 01:26N 30°00' E 122°06'4896629522.1
2016-Sep-24 01:25S 20°09' E 057°30'491615887.0
2016-Sep-24 01:07N 31°30' E 121°25'9225.9
2016-Sep-24 01:05N 31°22' E 121°30'0 0.0
2016-Sep-24 00:33N 31°22' E 121°30'2340711.4
2016-Sep-24 00:33N 31°40' E 121°13'44157962.3
2016-Sep-24 00:33N 31°58' E 120°27'151543448.9
2016-Sep-24 00:33N 29°55' E 122°08'10328437.5
2016-Sep-24 00:33N 31°30' E 121°24'4916305109.4
2016-Sep-24 00:32S 20°09' E 057°30'0 0.5
2016-Sep-24 00:31S 20°09' E 057°30'49131965288.4
2016-Sep-24 00:31N 31°40' E 121°13'16524.6
2016-Sep-24 00:29N 31°28' E 121°25'65604.1
2016-Sep-24 00:29N 31°32' E 121°20'4252.2
2016-Sep-24 00:28N 31°30' E 121°24'10844.2
2016-Sep-24 00:28N 31°22' E 121°30'9320.1
2016-Sep-24 00:26N 31°29' E 121°25'10 2.0
2016-Sep-23 19:34N 31°21' E 121°31'2414466.8
2016-Sep-23 19:33N 31°40' E 121°13'131448.3
2016-Sep-23 19:33N 31°30' E 121°24'4257.9
2016-Sep-23 19:32N 31°32' E 121°20'101342.7
2016-Sep-23 19:32N 31°40' E 121°13'4913116366.8
2016-Sep-23 19:29S 20°09' E 057°30'4916141568.5
2016-Sep-23 19:27N 31°30' E 121°24'373134418.8
2016-Sep-23 19:27N 37°43' E 121°36'37335340.2
2016-Sep-23 19:26N 31°30' E 121°23'4915376454.3
2016-Sep-23 19:25S 20°09' E 057°30'45612345865.8
2016-Sep-23 19:25N 24°41' E 118°56'42337127.0
2016-Sep-23 19:25N 31°21' E 121°30'8577.4
2016-Sep-23 19:24N 31°28' E 121°25'113.0
2016-Sep-23 19:19N 31°29' E 121°25'14 8.2
2016-Sep-23 17:33N 31°40' E 121°14'1018867.2
2016-Sep-23 17:33N 31°31' E 121°21'1140.1
2016-Sep-23 17:33N 31°32' E 121°21'111157.4
2016-Sep-23 17:33N 31°25' E 121°30'12904.1
2016-Sep-23 17:32N 31°32' E 121°20'176154.3
2016-Sep-23 17:32N 31°22' E 121°36'11386.4
2016-Sep-23 17:30N 31°28' E 121°25'4916340324.4
2016-Sep-23 17:29S 20°09' E 057°30'4913842265.8
2016-Sep-23 17:29N 31°40' E 121°13'1098385.4
2016-Sep-23 17:28N 30°00' E 122°06'871537.8
2016-Sep-23 17:25N 31°22' E 121°30'4916130122.8
2016-Sep-23 17:22S 20°09' E 057°30'49166052.2
2016-Sep-23 16:34N 31°22' E 121°30'198673.9
2016-Sep-23 16:33N 31°37' E 121°16'142107.9
2016-Sep-23 16:33N 31°27' E 121°28'1812917.0
2016-Sep-23 16:33N 31°40' E 121°14'51257.7
2016-Sep-23 16:33N 31°36' E 121°17'6446178.8
2016-Sep-23 16:33N 31°58' E 120°06'17141153.0
2016-Sep-23 16:32N 29°53' E 122°22'4905882840.1
2016-Sep-23 16:32S 20°09' E 057°30'44135295611.7
2016-Sep-23 16:32N 23°20' E 116°50'552331266.8
2016-Sep-23 16:32N 31°40' E 121°13'102061.9
2016-Sep-23 16:32N 31°32' E 121°20'4914552782.6
2016-Sep-23 16:31S 20°09' E 057°30'489692285.6
2016-Sep-23 16:28N 30°00' E 122°06'11210336.5
2016-Sep-23 16:27N 31°41' E 121°09'197528.6
2016-Sep-23 16:27N 31°28' E 121°25'1 5.3
2016-Sep-23 16:13N 31°29' E 121°24'913.9
2016-Sep-23 15:34N 31°22' E 121°30'2383755.3
2016-Sep-23 15:33N 31°40' E 121°13'554664870.0
2016-Sep-23 15:33N 23°20' E 116°45'5541994163.1
2016-Sep-23 15:33N 31°41' E 121°10'664298618.6
2016-Sep-23 15:33N 23°02' E 113°24'665341744.8
2016-Sep-23 15:33N 31°40' E 121°13'82729.5
2016-Sep-23 15:33N 31°45' E 121°05'469239.9
2016-Sep-23 15:33N 31°57' E 120°12'4877450145.1
2016-Sep-23 15:32S 20°09' E 057°30'4914536031.7
2016-Sep-23 15:31N 31°32' E 121°20'4914609967.0
2016-Sep-23 15:31S 20°09' E 057°30'4912200953.3
2016-Sep-23 15:30N 31°40' E 121°12'1103889.2
2016-Sep-23 15:28N 30°00' E 122°06'956420.3
2016-Sep-23 15:27N 31°28' E 121°25'82636.7
2016-Sep-23 15:19N 32°02' E 119°58'80665.4
2016-Sep-23 15:12N 31°30' E 121°24'118.6
2016-Sep-23 15:09N 31°31' E 121°23'12 7.6
2016-Sep-23 13:33N 31°40' E 121°14'61045.5
2016-Sep-23 13:33N 31°43' E 121°07'5310513.6
2016-Sep-23 13:33N 31°57' E 120°08'584747.9
2016-Sep-23 13:32N 31°40' E 121°13'49134421896.2
2016-Sep-23 13:32S 20°09' E 057°30'49168848276.8
2016-Sep-23 13:32N 31°30' E 121°24'4916305113.0
2016-Sep-23 13:31S 20°09' E 057°30'4885428932.0
2016-Sep-23 13:30N 29°58' E 121°53'1467723.6
2016-Sep-23 13:29N 32°03' E 120°26'1506199.3
2016-Sep-23 13:28N 30°00' E 122°06'62221327.2
2016-Sep-23 13:26N 23°04' E 113°29'64041171.4
2016-Sep-23 13:25N 31°57' E 120°10'777894.2
2016-Sep-23 13:25N 31°22' E 121°30'846.5
2016-Sep-23 13:14N 31°28' E 121°25'6407.1
2016-Sep-23 13:13N 31°32' E 121°20'11832.1
2016-Sep-23 09:33N 29°41' E 122°06'127152149.6
2016-Sep-23 09:33N 31°40' E 121°13'103247.8
2016-Sep-23 09:33N 31°32' E 121°21'371222427.4
2016-Sep-23 09:33N 37°43' E 121°32'6616934.5
2016-Sep-23 09:33N 36°53' E 122°26'31518301.8
2016-Sep-23 09:32N 31°45' E 121°06'5110842.7
2016-Sep-23 09:32N 31°57' E 120°07'48731949145.4
2016-Sep-23 09:31S 20°09' E 057°30'49198854425.3
2016-Sep-23 09:31N 31°23' E 121°34'162454.3
2016-Sep-23 09:31N 31°32' E 121°20'4111.5
2016-Sep-23 09:29N 31°30' E 121°24'4916465708.3
2016-Sep-23 09:28S 20°09' E 057°30'4896801207.4
2016-Sep-23 09:28N 30°00' E 122°06'1601140.7
2016-Sep-23 09:19N 31°59' E 120°01'6523.5
2016-Sep-23 06:34N 31°40' E 121°13'10978570.3
2016-Sep-23 06:33N 30°00' E 122°06'105126116.6
2016-Sep-23 06:33N 31°37' E 121°17'554665378.9
2016-Sep-23 06:33N 23°22' E 116°34'49288640.3
2016-Sep-23 06:33N 29°55' E 122°07'10423461.6
2016-Sep-23 06:33N 31°32' E 121°22'36994871.8
2016-Sep-23 06:33N 37°41' E 121°27'36624862.0
2016-Sep-23 06:32N 31°35' E 121°19'49151179509.0
2016-Sep-23 06:31S 20°09' E 057°30'49158847607.9
2016-Sep-23 06:31N 31°30' E 121°24'67121430.2
2016-Sep-23 06:31N 31°56' E 120°10'47840012.6
2016-Sep-23 06:31N 24°11' E 118°07'4504126685.7
2016-Sep-23 06:28S 20°09' E 057°30'51411321856.0
2016-Sep-23 06:28N 37°45' E 121°24'3531270992.8
2016-Sep-23 06:28N 31°58' E 120°03'743066.2
2016-Sep-23 06:27N 31°30' E 121°24'723842.3
2016-Sep-23 06:26N 31°58' E 120°07'674646.3
2016-Sep-23 06:25N 31°32' E 121°20'327.3
2016-Sep-23 06:18N 31°31' E 121°23'1182185.7
2016-Sep-23 06:15N 29°46' E 122°26'12071.0
2016-Sep-23 04:34N 31°32' E 121°20'94210.4
2016-Sep-23 04:33N 31°40' E 121°14'109196348.3
2016-Sep-23 04:33N 30°00' E 122°06'468280685.8
2016-Sep-23 04:33N 37°47' E 121°21'9003239526.1
2016-Sep-23 04:33N 23°18' E 116°47'89542970.5
2016-Sep-23 04:32N 37°42' E 121°18'350629344.9
2016-Sep-23 04:32N 31°57' E 120°15'6412810.3
2016-Sep-23 04:32N 31°30' E 121°24'49151361181.1
2016-Sep-23 04:31S 20°09' E 057°30'051.6
2016-Sep-23 04:31S 20°09' E 057°30'4885703382.9
2016-Sep-23 04:31N 31°59' E 120°21'5395655.4
2016-Sep-23 04:31N 31°36' E 121°17'83341.7
2016-Sep-23 04:31N 31°30' E 121°24'6812924.8
2016-Sep-23 04:30N 31°56' E 120°10'1747277.2
2016-Sep-23 04:29N 29°47' E 122°26'1142578.4
2016-Sep-23 04:26N 31°28' E 121°25'784336.3
2016-Sep-23 04:25N 31°59' E 120°01'843.0
2016-Sep-23 04:14N 31°56' E 120°09'18151.4
2016-Sep-23 04:07N 32°02' E 120°30'5292.5
2016-Sep-23 03:34N 31°32' E 121°20'10039942.2
2016-Sep-23 03:33N 30°00' E 122°06'48961468871.1
2016-Sep-23 03:33S 20°09' E 057°30'48904401010.4
2016-Sep-23 03:33N 32°02' E 120°26'4611789.7
2016-Sep-23 03:33N 31°40' E 121°14'12211020.1
2016-Sep-23 03:32N 29°52' E 122°22'12219981.4
2016-Sep-23 03:32N 31°39' E 121°13'15893.3
2016-Sep-23 03:31N 31°28' E 121°25'7615158.5
2016-Sep-23 03:31N 31°58' E 120°03'5310.6
2016-Sep-23 03:29N 31°56' E 120°09'178430.2
2016-Sep-23 03:05N 29°45' E 122°28'2547.6
2016-Sep-23 02:33N 30°00' E 122°06'2517643.9
2016-Sep-23 02:33N 29°47' E 122°29'17210165.7
2016-Sep-23 02:32N 31°59' E 120°21'488417583461.3
2016-Sep-23 02:32S 20°09' E 057°30'4872584670.0
2016-Sep-23 02:32N 31°57' E 120°07'5914233.4
2016-Sep-23 02:31N 31°40' E 121°14'4913769012.8
2016-Sep-23 02:31S 20°09' E 057°30'5126335505.4
2016-Sep-23 02:30N 37°40' E 121°08'3471249717.1
2016-Sep-23 02:30N 31°56' E 120°09'131479.3
2016-Sep-23 02:30N 32°01' E 120°23'141593.2
2016-Sep-23 02:29N 31°56' E 120°08'2106.7
2016-Sep-23 02:28N 31°56' E 120°10'152162.9
2016-Sep-23 01:32N 30°00' E 122°04'48958810486.9
2016-Sep-23 01:32S 20°09' E 057°30'491235439.8
2016-Sep-23 01:24N 31°21' E 121°27'3798180.1
2016-Sep-23 01:21N 37°40' E 121°08'3865889.5
2016-Sep-23 01:17N 31°14' E 121°29'5933.9
2016-Sep-23 01:17N 31°18' E 121°33'6558107.1
2016-Sep-23 01:12N 23°04' E 113°29'65619208.3
2016-Sep-23 01:10N 31°21' E 121°31'152015.1
2016-Sep-23 01:09N 31°32' E 121°20'20453.5
2016-Sep-23 01:07N 31°23' E 121°41'380650.1
2016-Sep-23 00:32N 37°42' E 121°12'5130577167.1
2016-Sep-23 00:31S 20°09' E 057°30'4916184345.7
2016-Sep-23 00:30N 31°21' E 121°31'4320.6
2016-Sep-23 00:29N 31°18' E 121°33'65511737.2
2016-Sep-23 00:25N 23°04' E 113°29'6636401.9
2016-Sep-23 00:19N 31°23' E 121°41'382496.4
2016-Sep-22 23:33N 37°44' E 121°24'5140313635.1
2016-Sep-22 23:32S 20°09' E 057°30'4916215819.4
2016-Sep-22 23:31N 31°21' E 121°31'38259739.8
2016-Sep-22 23:30N 37°42' E 121°11'9647909.3
2016-Sep-22 23:23N 23°04' E 113°29'66010425.2
2016-Sep-22 23:19N 31°21' E 121°39'5131.9
2016-Sep-22 23:17N 31°18' E 121°33'446163.5
2016-Sep-22 20:33N 38°44' E 121°31'6111506.0
2016-Sep-22 20:33N 37°44' E 121°31'38237202.2
2016-Sep-22 20:32N 31°21' E 121°31'6567849.3
2016-Sep-22 20:27N 23°04' E 113°29'6165319.1
2016-Sep-22 20:20N 29°56' E 122°01'147724.7
2016-Sep-22 20:08N 31°58' E 120°26'34845.9
2016-Sep-22 12:33N 37°41' E 121°40'51509269380.5
2016-Sep-22 12:33S 20°09' E 057°30'49173540104.7
2016-Sep-22 12:33N 31°20' E 121°33'297.5
2016-Sep-22 12:32N 31°18' E 121°33'4916102885.0
2016-Sep-22 12:29S 20°09' E 057°30'491671948.6
2016-Sep-22 12:25N 31°21' E 121°33'159.9
2016-Sep-22 12:23N 31°21' E 121°31'9612.2
2016-Sep-22 04:33N 29°51' E 122°08'4899551093.5
2016-Sep-22 04:33S 20°11' E 057°23'5147772064.0
2016-Sep-22 04:33N 37°42' E 121°26'384230418.9
2016-Sep-22 04:32N 31°18' E 121°33'59501.2
2016-Sep-22 04:32N 31°22' E 121°30'3558.5
2016-Sep-22 04:32N 31°21' E 121°33'65765681.5
2016-Sep-22 04:31N 23°04' E 113°29'641153749.6
2016-Sep-22 04:31N 31°57' E 120°11'0736.0
2016-Sep-22 04:31N 31°56' E 120°11'4875877467.0
2016-Sep-22 04:31S 20°09' E 057°30'4918553277.0
2016-Sep-22 04:30N 31°25' E 121°31'10511.1
2016-Sep-22 04:29N 31°20' E 121°40'9535.1
2016-Sep-22 04:28N 31°25' E 121°31'3822134.1
2016-Sep-22 04:17N 37°47' E 121°24'3923676.4
2016-Sep-22 04:11N 31°15' E 121°31'778.0
2016-Sep-22 04:05N 31°21' E 121°27'71035.6
2016-Sep-22 04:05N 31°23' E 121°35'4 7.9
2016-Sep-22 03:33N 31°22' E 121°30'38065108.2
2016-Sep-22 03:33N 37°41' E 121°22'38035112.6
2016-Sep-22 03:32N 31°21' E 121°27'38515741.7
2016-Sep-22 03:31N 37°46' E 121°27'51432057269.6
2016-Sep-22 03:31S 20°09' E 057°30'491791236.4
2016-Sep-22 03:27N 31°21' E 121°33'3162.5
2016-Sep-22 03:27N 31°18' E 121°33'8341.7
2016-Sep-22 03:25N 31°25' E 121°30'251.3
2016-Sep-22 03:23N 31°24' E 121°32'8 2.9
2016-Sep-22 00:33N 31°21' E 121°41'422168813.3
2016-Sep-22 00:33N 24°46' E 118°54'4198472.8
2016-Sep-22 00:30N 31°21' E 121°33'5316.6
2016-Sep-22 00:29N 31°21' E 121°27'7826.4
2016-Sep-22 00:29N 31°23' E 121°34'1169.8
2016-Sep-22 00:19N 31°30' E 121°24'685.4
2016-Sep-22 00:15N 31°25' E 121°30'1084197.7
2016-Sep-22 00:13N 29°41' E 122°05'61511539.1
2016-Sep-22 00:10N 22°49' E 113°36'6701097.7
2016-Sep-21 23:33N 31°21' E 121°41'416106883.6
2016-Sep-21 23:33N 24°51' E 118°60'318143313.2
2016-Sep-21 23:33N 22°55' E 113°35'61345024.0
2016-Sep-21 23:32N 29°45' E 122°03'1012115.3
2016-Sep-21 23:29N 31°21' E 121°27'6548464.2
2016-Sep-21 23:25N 23°04' E 113°29'65510347.2
2016-Sep-21 23:21N 31°18' E 121°33'345.3
2016-Sep-21 23:17N 31°21' E 121°33'3 3.5
2016-Sep-21 22:33N 31°23' E 121°34'945273.3
2016-Sep-21 22:32N 29°54' E 122°09'905465.2
2016-Sep-21 22:31N 31°18' E 121°33'7200.9
2016-Sep-21 22:29N 31°21' E 121°27'65447058.9
2016-Sep-21 22:28N 23°04' E 113°29'6626305.9
2016-Sep-21 22:22N 31°21' E 121°41'8329.4
2016-Sep-21 19:33N 31°56' E 120°13'8337143.4
2016-Sep-21 19:33N 31°21' E 121°41'8111685.8
2016-Sep-21 19:33N 31°56' E 120°15'44540.5
2016-Sep-21 19:28N 31°45' E 121°05'317375.6
2016-Sep-21 19:28N 31°22' E 121°28'65565531.6
2016-Sep-21 19:27N 23°04' E 113°29'6517684.2
2016-Sep-21 19:22N 32°02' E 120°23'211209.9
2016-Sep-21 19:21N 32°01' E 119°59'862102.0
2016-Sep-21 19:19N 31°22' E 121°30'751400.5
2016-Sep-21 19:15N 31°56' E 120°11'83728.5
2016-Sep-21 19:09N 31°22' E 121°39'2 0.6
2016-Sep-21 16:33N 31°21' E 121°41'843132.8
2016-Sep-21 16:32N 31°57' E 120°11'64983385.2
2016-Sep-21 16:31N 22°52' E 113°34'66299296.1
2016-Sep-21 16:31N 31°22' E 121°28'7418.0
2016-Sep-21 16:30N 31°17' E 121°34'9026855.7
2016-Sep-21 16:30N 31°59' E 120°01'892343.2
2016-Sep-21 16:27N 31°18' E 121°33'782517.3
2016-Sep-21 16:25N 31°56' E 120°13'64127822.4
2016-Sep-21 16:24N 23°04' E 113°29'662140139.0
2016-Sep-21 16:24N 31°22' E 121°39'15346.1
2016-Sep-21 16:21N 31°30' E 121°24'68733.8
2016-Sep-21 16:16N 31°56' E 120°11'3544232.0
2016-Sep-21 16:11N 37°44' E 121°33'2 0.3
2016-Sep-21 09:33N 37°42' E 121°32'5145440961.8
2016-Sep-21 09:33S 20°09' E 057°30'49202530358.6
2016-Sep-21 09:33N 31°22' E 121°36'6204.0
2016-Sep-21 09:31N 31°22' E 121°28'128.7
2016-Sep-21 09:28N 31°22' E 121°30'65642948.4
2016-Sep-21 09:27N 23°04' E 113°29'6623142.5
2016-Sep-21 09:14N 31°22' E 121°39'222.3
2016-Sep-21 09:10N 31°20' E 121°39'2 3.1
2016-Sep-21 08:34N 31°21' E 121°41'38137051.3
2016-Sep-21 08:33N 37°42' E 121°27'97020780.3
2016-Sep-21 08:30N 23°04' E 113°29'65516269.5
2016-Sep-21 08:28N 31°22' E 121°28'492.3
2016-Sep-21 08:25N 31°21' E 121°33'6 2.2
2016-Sep-21 05:33N 31°26' E 121°30'37679599.0
2016-Sep-21 05:33N 37°42' E 121°21'381686097.6
2016-Sep-21 05:33N 31°21' E 121°41'9625.0
2016-Sep-21 05:32N 31°23' E 121°30'4916610226.5
2016-Sep-21 05:31S 20°09' E 057°30'488873623.0
2016-Sep-21 05:27N 31°58' E 120°26'15380.7
2016-Sep-21 03:33N 29°53' E 122°09'9110943.7
2016-Sep-21 03:33N 31°21' E 121°41'38455292.6
2016-Sep-21 03:33N 37°45' E 121°19'38311989.7
2016-Sep-21 03:31N 31°22' E 121°28'4914421225.2
2016-Sep-21 03:30S 20°09' E 057°30'491656539.2
2016-Sep-21 03:25N 31°18' E 121°33'6557997.3
2016-Sep-21 03:20N 23°04' E 113°29'662852.4
2016-Sep-21 02:33N 31°21' E 121°41'7248.2
2016-Sep-21 02:31N 31°18' E 121°33'3396.1
2016-Sep-21 02:31N 31°21' E 121°33'4430.7
2016-Sep-21 02:31N 31°22' E 121°28'4914478143.0
2016-Sep-21 02:30S 20°09' E 057°30'424332708.8
2016-Sep-21 02:22N 23°04' E 113°29'66175.0
2016-Sep-20 17:33N 31°21' E 121°38'7928506.3
2016-Sep-20 17:33N 30°03' E 121°56'7947365.4
2016-Sep-20 17:33N 31°21' E 121°41'179913.4
2016-Sep-20 17:33N 31°30' E 121°24'49161608737.5
2016-Sep-20 17:33S 20°09' E 057°30'491517692202.4
2016-Sep-20 17:33N 31°33' E 121°20'66237703.8
2016-Sep-20 17:33N 31°56' E 120°07'706421.0
2016-Sep-20 17:32N 31°31' E 121°23'29762868.8
2016-Sep-20 17:32N 26°47' E 119°43'30420279.0
2016-Sep-20 17:31N 31°41' E 121°10'183278.1
2016-Sep-20 17:31N 31°28' E 121°25'670.0
2016-Sep-20 17:25N 31°24' E 121°31'10205.8
2016-Sep-20 17:22N 31°14' E 121°29'54731260.9
2016-Sep-20 17:21N 23°06' E 116°53'18714050.7
2016-Sep-20 17:20N 23°04' E 113°29'618221.8
2016-Sep-20 14:33N 29°58' E 122°03'8538438.4
2016-Sep-20 14:33N 31°21' E 121°41'4923886206.6
2016-Sep-20 14:33S 20°09' E 057°30'5155662743.3
2016-Sep-20 14:32N 36°53' E 122°26'327588181.4
2016-Sep-20 14:32N 31°31' E 121°23'659112924.1
2016-Sep-20 14:32N 23°04' E 113°29'656787755.5
2016-Sep-20 14:32N 31°22' E 121°30'712827.2
2016-Sep-20 14:32N 31°28' E 121°25'6234.0
2016-Sep-20 14:30N 31°32' E 121°19'673473.8
2016-Sep-20 14:29N 31°57' E 120°07'742877.8
2016-Sep-20 14:27N 31°28' E 121°26'14408.3
2016-Sep-20 14:25N 31°15' E 121°33'999.5
2016-Sep-20 14:20N 31°24' E 121°31'6714.5
2016-Sep-20 14:20N 31°18' E 121°33'0 0.0
2016-Sep-20 13:33N 31°18' E 121°33'8427449.1
2016-Sep-20 13:33N 29°58' E 122°03'152273118.5
2016-Sep-20 13:33N 31°57' E 120°12'4876605340.3
2016-Sep-20 13:33S 20°09' E 057°30'48858793196.2
2016-Sep-20 13:33N 31°60' E 120°22'607980.2
2016-Sep-20 13:32N 31°31' E 121°23'2777.1
2016-Sep-20 13:32N 31°31' E 121°21'658197475.9
2016-Sep-20 13:32N 23°04' E 113°29'657262994.6
2016-Sep-20 13:32N 31°32' E 121°19'11606.7
2016-Sep-20 13:31N 31°25' E 121°30'2944050.2
2016-Sep-20 13:26N 26°47' E 119°43'293150534.1
2016-Sep-20 13:26N 31°24' E 121°31'81168.8
2016-Sep-20 13:26N 31°30' E 121°24'23219.0
2016-Sep-20 13:19N 31°47' E 121°06'37153.2
2016-Sep-20 13:05N 31°21' E 121°38'8634.2
2016-Sep-20 10:33N 29°58' E 122°03'4892503213.2
2016-Sep-20 10:33S 20°09' E 057°30'49131965182.1
2016-Sep-20 10:32N 31°32' E 121°19'41134.9
2016-Sep-20 10:32N 31°31' E 121°23'10542145.4
2016-Sep-20 10:32N 29°52' E 122°08'22562359.3
2016-Sep-20 10:32N 26°47' E 119°43'29362000.3
2016-Sep-20 10:32N 31°24' E 121°31'6316269.2
2016-Sep-20 10:31N 32°03' E 120°33'707191.3
2016-Sep-20 10:31N 31°15' E 121°33'1729848.3
2016-Sep-20 10:31N 31°30' E 121°24'2192.7
2016-Sep-20 10:30N 31°28' E 121°25'192185.5
2016-Sep-20 10:29N 31°42' E 121°09'5213301.2
2016-Sep-20 10:29N 31°56' E 120°10'64034889.0
2016-Sep-20 10:28N 23°04' E 113°29'65911928.5
2016-Sep-20 10:25N 31°41' E 121°10'3118624.7
2016-Sep-20 10:25N 31°22' E 121°39'144.0
2016-Sep-20 10:23N 31°21' E 121°41'16198.1
2016-Sep-20 10:18N 31°30' E 121°24'141155.9
2016-Sep-20 10:17N 31°18' E 121°33'38483.7
2016-Sep-20 10:12N 31°47' E 121°05'4183189.1
2016-Sep-20 10:05N 38°44' E 121°39'527345.8
2016-Sep-20 08:33N 29°58' E 122°03'611673.5
2016-Sep-20 08:33N 29°52' E 122°08'625132441.7
2016-Sep-20 08:33N 22°54' E 113°29'670150765.4
2016-Sep-20 08:33N 31°21' E 121°41'492317724232.1
2016-Sep-20 08:33S 20°09' E 057°30'48723507513.5
2016-Sep-20 08:33N 31°58' E 120°05'823540.7
2016-Sep-20 08:31N 31°23' E 121°32'1343.3
2016-Sep-20 08:31N 31°24' E 121°34'15742.5
2016-Sep-20 08:30N 31°32' E 121°19'13386.6
2016-Sep-20 08:28N 31°24' E 121°31'62576.4
2016-Sep-20 08:28N 31°28' E 121°25'3130.6
2016-Sep-20 08:26N 31°31' E 121°23'155511.5
2016-Sep-20 08:26N 31°18' E 121°33'655235930.3
2016-Sep-20 08:26N 23°04' E 113°29'65373454.5
2016-Sep-20 08:25N 31°15' E 121°32'862393.6
2016-Sep-20 08:23N 31°57' E 120°04'157188.6
2016-Sep-20 07:33N 29°58' E 122°03'1011542.9
2016-Sep-20 07:33N 29°48' E 122°05'48891759884.2
2016-Sep-20 07:33S 20°09' E 057°29'49161106069.1
2016-Sep-20 07:33N 31°28' E 121°25'6927538.7
2016-Sep-20 07:33N 31°57' E 120°12'8475376.4
2016-Sep-20 07:33N 31°21' E 121°41'71104.5
2016-Sep-20 07:32N 31°18' E 121°33'28841452.7
2016-Sep-20 07:32N 26°47' E 119°43'29810201.6
2016-Sep-20 07:30N 31°32' E 121°19'66221476.5
2016-Sep-20 07:28N 22°58' E 113°30'663132509.7
2016-Sep-20 07:28N 31°24' E 121°31'84927.3
2016-Sep-20 07:28N 31°30' E 121°24'9267.9
2016-Sep-20 07:26N 31°22' E 121°29'2230.3
2016-Sep-20 07:25N 31°21' E 121°31'11134.9
2016-Sep-20 07:20N 31°31' E 121°23'659395244.1
2016-Sep-20 07:20N 23°04' E 113°29'6299200.1
2016-Sep-20 07:16N 29°53' E 122°22'629883.4
2016-Sep-20 06:33N 23°04' E 113°29'619742310.4
2016-Sep-20 06:33N 29°58' E 122°03'49001356973.2
2016-Sep-20 06:33S 20°12' E 057°22'4923369221.2
2016-Sep-20 06:32N 31°31' E 121°23'1155122.8
2016-Sep-20 06:31N 29°41' E 122°06'16511903.2
2016-Sep-20 06:30N 31°57' E 120°15'31114733.6
2016-Sep-20 06:29N 26°47' E 119°43'2951063227.2
2016-Sep-20 06:29N 31°28' E 121°25'14311.7
2016-Sep-20 06:26N 31°22' E 121°40'20427.6
2016-Sep-20 06:23N 31°32' E 121°19'4182.9
2016-Sep-20 06:22N 31°30' E 121°24'15223.2
2016-Sep-20 06:18N 31°41' E 121°11'24350.0
2016-Sep-20 06:14N 31°22' E 121°29'29682.1
2016-Sep-20 06:11N 31°44' E 121°07'2137.6
2016-Sep-20 06:10N 31°43' E 121°08'11732.5
2016-Sep-20 02:34N 29°55' E 122°03'  
Track history (hours):
 
Tides and Currents Weather Stations Pressure Air Temp Water Temp Dewpoint Dewpoint Depression Visibility Wind Speed Wind Dir Waves Ship Positions

Callsign 000000 (name unknown)

Last reported at 2016-Sep-30 02:33 UTC. Time now 2016-Sep-30 03:12 UTC.
Position S 20°09' E 057°30'.

Type: Fishing. MMSI: 200007452.

Date/timePositionNaut miles runAvg speedWind from/ knotsBaromVisibWave heightAir tempDewpointWater temp
2016-Sep-30 02:33S 20°09' E 057°30'4915478213.7
2016-Sep-30 02:33N 31°34' E 121°20'4915173469.7
2016-Sep-30 02:31S 20°09' E 057°30'491521738.6
2016-Sep-30 02:18N 31°30' E 121°23'3704255.3
2016-Sep-30 02:12N 37°40' E 121°08'37160652.8
2016-Sep-30 02:12N 31°30' E 121°24'6424.2
2016-Sep-29 23:34N 31°56' E 120°16'48792927309.9
2016-Sep-29 23:33S 20°09' E 057°30'48941468321.3
2016-Sep-29 23:33N 29°54' E 122°08'1014044.9
2016-Sep-29 23:32N 31°28' E 121°25'47311438.7
2016-Sep-29 23:29N 24°09' E 118°05'4502245574.8
2016-Sep-29 23:28S 20°09' E 057°30'4885217108.9
2016-Sep-29 23:27N 31°58' E 120°22'601906.4
2016-Sep-29 23:25N 31°30' E 121°24'146.1
2016-Sep-29 23:24N 31°30' E 121°23'54935931.5
2016-Sep-29 23:23N 23°21' E 116°43'4951717.6
2016-Sep-29 23:06N 29°52' E 122°22'11474.2
2016-Sep-29 21:33N 31°33' E 121°20'49145896887.3
2016-Sep-29 21:33S 20°09' E 057°30'49161040948.7
2016-Sep-29 21:33N 31°30' E 121°24'2646.8
2016-Sep-29 21:33N 31°28' E 121°25'7514204.2
2016-Sep-29 21:33N 31°57' E 120°04'4870199246.3
2016-Sep-29 21:31S 20°09' E 057°30'4915884769.8
2016-Sep-29 21:31N 31°30' E 121°23'4755913.3
2016-Sep-29 21:26N 24°09' E 118°06'4632378.4
2016-Sep-29 21:14N 31°15' E 121°31'733308.5
2016-Sep-29 21:13N 31°58' E 120°22'410622.9
2016-Sep-29 20:34N 38°44' E 121°28'1026923590.4
2016-Sep-29 20:33N 23°04' E 113°29'260103901.0
2016-Sep-29 20:33N 24°07' E 118°04'47633625.4
2016-Sep-29 20:32N 31°30' E 121°24'261.6
2016-Sep-29 20:31N 31°28' E 121°25'31361.9
2016-Sep-29 20:31N 31°30' E 121°23'29625399.8
2016-Sep-29 20:30N 26°47' E 119°43'31362568.4
2016-Sep-29 20:30N 31°58' E 120°22'4885197593.5
2016-Sep-29 20:28S 20°09' E 057°30'4868265543.8
2016-Sep-29 20:27N 32°03' E 119°56'119.9
2016-Sep-29 20:23N 32°02' E 119°57'4868194722.0
2016-Sep-29 20:21S 20°09' E 057°30'496850522.6
2016-Sep-29 20:15N 35°17' E 119°32'3559530.3
2016-Sep-29 20:13N 29°52' E 122°22'49047381.2
2016-Sep-29 19:33S 20°09' E 057°30'48703506340.3
2016-Sep-29 19:33N 31°58' E 120°02'779500.3
2016-Sep-29 19:33N 31°28' E 121°25'788476.8
2016-Sep-29 19:32N 31°59' E 120°01'7611422.7
2016-Sep-29 19:32N 31°30' E 121°24'6332318.1
2016-Sep-29 19:32N 31°57' E 120°17'4880474852.1
2016-Sep-29 19:31S 20°09' E 057°30'4915229809.9
2016-Sep-29 19:30N 31°30' E 121°23'19172.2
2016-Sep-29 19:23N 31°43' E 121°07'4839147.4
2016-Sep-29 19:20N 24°08' E 118°04'1821127.4
2016-Sep-29 19:11N 26°47' E 119°42'40547062.2
2016-Sep-29 19:10N 23°04' E 113°29'42431626.6
2016-Sep-29 16:33S 20°09' E 057°30'4874584926.8
2016-Sep-29 16:33N 31°55' E 120°10'14822.5
2016-Sep-29 16:32N 32°03' E 120°25'4881755817.5
2016-Sep-29 16:32N 24°10' E 118°07'17933869.5
2016-Sep-29 16:32N 26°47' E 119°42'4671672626.4
2016-Sep-29 16:31S 20°09' E 057°30'424364726.7
2016-Sep-29 16:27N 23°04' E 113°29'65816456.0
2016-Sep-29 16:25N 31°28' E 121°25'259.4
2016-Sep-29 16:23N 31°30' E 121°24'243433.7
2016-Sep-29 16:23N 31°45' E 121°03'23825.5
2016-Sep-29 16:21N 31°30' E 121°23'6680.7
2016-Sep-29 15:32N 31°56' E 120°11'4875731301.6
2016-Sep-29 15:31S 20°09' E 057°30'0 0.0
2016-Sep-29 15:30S 20°09' E 057°30'491180362.1
2016-Sep-29 15:27N 31°43' E 121°08'30514268.3
2016-Sep-29 15:25N 26°47' E 119°42'29731394.7
2016-Sep-29 15:25N 31°30' E 121°24'65920616.8
2016-Sep-29 15:23N 23°04' E 113°29'6594931.3
2016-Sep-29 15:15N 31°29' E 121°25'581131.0
2016-Sep-29 15:12N 32°04' E 120°30'721243.6
2016-Sep-29 15:08N 31°15' E 121°31'1423.7
2016-Sep-29 14:33N 31°28' E 121°25'6813556.1
2016-Sep-29 14:33N 31°56' E 120°13'4876129077.4
2016-Sep-29 14:30S 20°09' E 057°30'4916491610.1
2016-Sep-29 14:30N 31°29' E 121°25'1160.1
2016-Sep-29 14:29N 31°30' E 121°24'29666702.1
2016-Sep-29 14:29N 26°47' E 119°42'4671275665.3
2016-Sep-29 14:28S 20°09' E 057°30'4911376161.5
2016-Sep-29 14:27N 31°43' E 121°08'341090.2
2016-Sep-29 14:26N 31°15' E 121°31'39258.2
2016-Sep-29 14:17N 31°46' E 121°03'3953.0
2016-Sep-29 13:33N 31°15' E 121°31'49121473638.3
2016-Sep-29 13:33S 20°09' E 057°30'4915465661.6
2016-Sep-29 13:32N 31°30' E 121°23'6316130.2
2016-Sep-29 13:32N 31°57' E 120°16'488065065.5
2016-Sep-29 13:27S 20°09' E 057°30'42432545918.9
2016-Sep-29 13:27N 23°04' E 113°29'40515040.9
2016-Sep-29 13:25N 26°47' E 119°42'29560.5
2016-Sep-29 08:33N 31°28' E 121°25'49162212069.3
2016-Sep-29 08:33S 20°09' E 057°30'0 1.1
2016-Sep-29 08:32S 20°09' E 057°30'4915186267.1
2016-Sep-29 08:31N 31°30' E 121°23'145636.0
2016-Sep-29 08:31N 31°40' E 121°11'65913187.6
2016-Sep-29 08:28N 23°04' E 113°29'65610688.7
2016-Sep-29 08:24N 31°21' E 121°31'10806.7
2016-Sep-29 08:23N 31°30' E 121°24'2966277.3
2016-Sep-29 08:20N 26°47' E 119°42'3174035.2
2016-Sep-29 08:16N 32°02' E 120°27'5984.0
2016-Sep-29 07:33N 31°29' E 121°25'1433.7
2016-Sep-29 07:33N 31°30' E 121°24'65981754.2
2016-Sep-29 07:32N 23°04' E 113°29'40572942.3
2016-Sep-29 07:32N 26°47' E 119°42'4671107791.9
2016-Sep-29 07:30S 20°09' E 057°30'4915536223.5
2016-Sep-29 07:29N 31°30' E 121°23'56961.1
2016-Sep-29 07:26N 31°59' E 120°27'33246.2
2016-Sep-29 07:18N 31°46' E 121°02'490831608.5
2016-Sep-29 07:08S 20°09' E 057°30'491677287.5
2016-Sep-29 07:04N 31°21' E 121°32'16 2.5
2016-Sep-29 00:33N 31°33' E 121°20'659296527.9
2016-Sep-29 00:33N 23°04' E 113°29'659395536.7
2016-Sep-29 00:33N 31°32' E 121°22'3588.1
2016-Sep-29 00:33N 31°30' E 121°24'4916931371.1
2016-Sep-29 00:33S 20°09' E 057°30'4912930718.1
2016-Sep-29 00:32N 31°15' E 121°31'49122526234.9
2016-Sep-29 00:32S 20°09' E 057°30'488781820.5
2016-Sep-29 00:29N 32°00' E 120°23'121410.2
2016-Sep-29 00:28N 31°56' E 120°09'6245.2
2016-Sep-29 00:26N 31°58' E 120°03'747833.0
2016-Sep-29 00:26N 31°30' E 121°23'19403.1
2016-Sep-29 00:23N 31°17' E 121°08'19263.6
2016-Sep-29 00:19N 31°29' E 121°25'55831884.6
2016-Sep-29 00:18N 23°05' E 116°55'55812100.4
2016-Sep-29 00:15N 31°29' E 121°25'10137.5
2016-Sep-28 21:34N 29°55' E 122°06'957141.0
2016-Sep-28 21:33N 31°25' E 121°31'49193541352.6
2016-Sep-28 21:33S 20°09' E 057°30'49151474580.4
2016-Sep-28 21:32N 31°30' E 121°23'6173693.1
2016-Sep-28 21:32N 31°59' E 120°19'54917.4
2016-Sep-28 21:29N 31°36' E 121°16'94421.8
2016-Sep-28 21:29N 31°30' E 121°23'4915111291.8
2016-Sep-28 21:26S 20°09' E 057°30'4916242443.2
2016-Sep-28 21:25N 31°29' E 121°25'13121.6
2016-Sep-28 21:18N 31°38' E 121°14'46307.5
2016-Sep-28 21:10N 31°58' E 120°26'64932030.0
2016-Sep-28 21:08N 23°04' E 113°29'649407.4
2016-Sep-28 19:33N 31°58' E 120°26'561965.9
2016-Sep-28 19:31N 31°30' E 121°23'491568852.0
2016-Sep-28 19:27S 20°09' E 057°30'4916156622.7
2016-Sep-28 19:25N 31°29' E 121°25'4916188280.4
2016-Sep-28 19:23S 20°09' E 057°30'4915769364.7
2016-Sep-28 19:23N 31°30' E 121°23'1146.5
2016-Sep-28 19:08N 31°21' E 121°31'11 4.4
2016-Sep-28 16:33N 31°30' E 121°23'49151040872.0
2016-Sep-28 16:33S 20°09' E 057°30'4916333890.7
2016-Sep-28 16:32N 31°21' E 121°31'676318.8
2016-Sep-28 16:31N 31°58' E 120°26'36448469.0
2016-Sep-28 16:31N 25°58' E 119°27'34727729.4
2016-Sep-28 16:30N 31°29' E 121°25'4916376557.1
2016-Sep-28 16:29S 20°09' E 057°30'42431697284.7
2016-Sep-28 16:29N 23°04' E 113°29'65918967.3
2016-Sep-28 16:27N 31°30' E 121°23'1771.3
2016-Sep-28 16:13N 31°15' E 121°31'72508.3
2016-Sep-28 16:04N 31°58' E 120°23'58112.4
2016-Sep-28 15:33N 31°30' E 121°23'4915310436.5
2016-Sep-28 15:32S 20°09' E 057°30'0 0.8
2016-Sep-28 15:32S 20°09' E 057°30'4631187316.5
2016-Sep-28 15:31N 25°58' E 119°27'335172103.3
2016-Sep-28 15:30N 31°15' E 121°31'65956493.3
2016-Sep-28 15:30N 22°51' E 113°34'66710479.9
2016-Sep-28 15:26N 31°29' E 121°25'2417.4
2016-Sep-28 15:26N 31°30' E 121°23'581330.8
2016-Sep-28 15:23N 31°58' E 120°23'6482261.3
2016-Sep-28 15:06N 23°04' E 113°29'659258.1
2016-Sep-28 12:33N 31°29' E 121°25'65933408.7
2016-Sep-28 12:31N 23°04' E 113°29'652180443.4
2016-Sep-28 12:31N 31°15' E 121°31'6679.7
2016-Sep-28 12:31N 31°21' E 121°31'340102103.4
2016-Sep-28 12:31N 25°58' E 119°27'4631282559.4
2016-Sep-28 12:30S 20°09' E 057°30'4886135300.0
2016-Sep-28 12:27N 31°58' E 120°23'589059.6
2016-Sep-28 12:27N 31°30' E 121°23'4915264102.1
2016-Sep-28 12:26S 20°09' E 057°30'4915175199.1
2016-Sep-28 12:24N 31°30' E 121°23'15830.0
2016-Sep-28 12:23N 31°41' E 121°11'35492.6
2016-Sep-28 08:34N 25°58' E 119°27'34729707.4
2016-Sep-28 08:33N 31°29' E 121°25'4916983240.8
2016-Sep-28 08:33S 20°09' E 057°30'0 3.6
2016-Sep-28 08:32S 20°09' E 057°30'48744386337.4
2016-Sep-28 08:32N 31°56' E 120°09'786490.6
2016-Sep-28 08:32N 31°21' E 121°31'61144.8
2016-Sep-28 08:31N 31°15' E 121°31'17716.8
2016-Sep-28 08:30N 31°30' E 121°23'65940876.9
2016-Sep-28 08:29N 23°04' E 113°29'656214773.5
2016-Sep-28 08:29N 31°21' E 121°31'1185.1
2016-Sep-28 08:21N 31°30' E 121°23'65939529.8
2016-Sep-28 08:20N 23°04' E 113°29'658137.0
2016-Sep-28 03:32N 31°32' E 121°20'49142211076.1
2016-Sep-28 03:31S 20°09' E 057°30'4243235008.9
2016-Sep-28 03:30N 23°04' E 113°29'65887761.8
2016-Sep-28 03:30N 31°28' E 121°25'4916268130.2
2016-Sep-28 03:29S 20°09' E 057°30'48882513696.9
2016-Sep-28 03:29N 31°58' E 120°26'36418178.1
2016-Sep-28 03:27N 25°58' E 119°27'34725466.1
2016-Sep-28 03:27N 31°29' E 121°25'22336.3
2016-Sep-28 03:23N 31°44' E 121°07'20349.7
2016-Sep-28 03:19N 31°30' E 121°23'1776.2
2016-Sep-28 03:06N 31°15' E 121°31'335611.5
2016-Sep-28 02:33N 25°58' E 119°27'34815270.6
2016-Sep-28 02:32N 31°32' E 121°20'5125.5
2016-Sep-28 02:29N 31°29' E 121°25'825885.8
2016-Sep-28 02:29N 32°03' E 119°57'63930676.1
2016-Sep-28 02:27N 23°04' E 113°29'4243154297.6
2016-Sep-28 02:26S 20°09' E 057°30'49201265236.7
2016-Sep-28 02:26N 31°24' E 121°34'101138.2
2016-Sep-28 02:25N 31°15' E 121°31'14469.5
2016-Sep-28 02:23N 31°28' E 121°25'4916340319.8
2016-Sep-28 02:22S 20°09' E 057°30'4913552658.7
2016-Sep-28 02:22N 31°42' E 121°11'1576.6
2016-Sep-28 02:10N 31°30' E 121°23'347571.7
2016-Sep-28 01:33N 25°58' E 119°27'34439989.1
2016-Sep-28 01:33N 31°25' E 121°33'71670.8
2016-Sep-28 01:33N 31°28' E 121°25'4916983147.6
2016-Sep-28 01:32S 20°09' E 057°30'42431909439.7
2016-Sep-28 01:32N 23°04' E 113°29'65957830.0
2016-Sep-28 01:32N 31°30' E 121°23'31783.2
2016-Sep-28 01:31N 31°32' E 121°20'983188.7
2016-Sep-28 01:30N 29°59' E 121°55'943173.2
2016-Sep-28 01:28N 31°29' E 121°25'8211.5
2016-Sep-28 01:26N 31°35' E 121°19'4915353857.6
2016-Sep-28 01:25S 20°09' E 057°30'48681752430.0
2016-Sep-28 01:25N 31°60' E 119°59'212.6
2016-Sep-28 01:13N 31°59' E 120°01'857123.4
2016-Sep-28 01:12N 31°21' E 121°31'341207.1
2016-Sep-27 23:33N 25°58' E 119°27'4631308720.5
2016-Sep-27 23:32S 20°09' E 057°30'48941761810.4
2016-Sep-27 23:32N 30°00' E 122°03'142861.1
2016-Sep-27 23:32N 29°47' E 122°04'163586549.8
2016-Sep-27 23:32N 31°57' E 120°10'644832.5
2016-Sep-27 23:31N 31°32' E 121°20'4914707546.1
2016-Sep-27 23:31S 20°09' E 057°30'4915242402.0
2016-Sep-27 23:30N 31°30' E 121°23'3469.1
2016-Sep-27 23:29N 31°28' E 121°25'14268.4
2016-Sep-27 23:26N 31°23' E 121°41'15864.7
2016-Sep-27 23:25N 31°29' E 121°25'8409.3
2016-Sep-27 23:24N 31°25' E 121°33'10383.5
2016-Sep-27 23:22N 31°15' E 121°31'6522795.7
2016-Sep-27 23:08N 23°04' E 113°29'65915397.5
2016-Sep-27 23:06N 31°30' E 121°24'550154.9
2016-Sep-27 19:33N 23°22' E 116°40'554997407.8
2016-Sep-27 19:33N 31°58' E 120°26'6629777.8
2016-Sep-27 19:33N 31°25' E 121°33'813911.6
2016-Sep-27 19:33N 31°29' E 121°25'34749898.6
2016-Sep-27 19:32N 25°59' E 119°27'34822355.1
2016-Sep-27 19:31N 31°32' E 121°20'4239.5
2016-Sep-27 19:30N 31°30' E 121°23'97174838.9
2016-Sep-27 19:30N 30°00' E 122°06'4896271174.4
2016-Sep-27 19:29S 20°09' E 057°30'4243104627.4
2016-Sep-27 19:27N 23°04' E 113°29'61523560.8
2016-Sep-27 19:25N 29°50' E 122°06'489082648.2
2016-Sep-27 19:22S 20°09' E 057°30'49141022.2
2016-Sep-27 14:33N 31°32' E 121°20'34883495.6
2016-Sep-27 14:33N 25°58' E 119°27'356256073.1
2016-Sep-27 14:33N 31°43' E 121°08'55568881.6
2016-Sep-27 14:33N 23°22' E 116°40'54635128.6
2016-Sep-27 14:32N 31°56' E 120°07'15469447.8
2016-Sep-27 14:32N 30°00' E 122°06'62269983.5
2016-Sep-27 14:31N 23°04' E 113°29'65965940.0
2016-Sep-27 14:30N 31°38' E 121°15'12506.1
2016-Sep-27 14:29N 31°29' E 121°25'115.4
2016-Sep-27 14:25N 31°28' E 121°25'59813.0
2016-Sep-27 14:20N 31°59' E 120°26'701375.3
2016-Sep-27 14:17N 31°15' E 121°31'2534.8
2016-Sep-27 13:33N 31°37' E 121°16'483908.5
2016-Sep-27 13:33N 31°59' E 120°26'7017917.8
2016-Sep-27 13:32N 31°15' E 121°29'815094.4
2016-Sep-27 13:31N 30°00' E 122°06'2809067.5
2016-Sep-27 13:30N 25°58' E 119°27'35612932.5
2016-Sep-27 13:28N 31°43' E 121°08'660113085.5
2016-Sep-27 13:28N 23°04' E 113°29'65887707.1
2016-Sep-27 13:27N 31°32' E 121°20'732031.7
2016-Sep-27 13:25N 31°59' E 120°00'893047.6
2016-Sep-27 13:23N 31°15' E 121°31'15312.8
2016-Sep-27 13:20N 31°29' E 121°25'14142.3
2016-Sep-27 13:14N 31°39' E 121°13'12185.4
2016-Sep-27 13:10N 31°30' E 121°23'55070676.1
2016-Sep-27 13:10N 23°22' E 116°40'1 0.3
2016-Sep-27 10:33N 23°21' E 116°40'549282128.0
2016-Sep-27 10:33N 31°31' E 121°18'61355.8
2016-Sep-27 10:33N 31°30' E 121°25'16904.9
2016-Sep-27 10:32N 31°15' E 121°31'4912589441.4
2016-Sep-27 10:31S 20°09' E 057°30'49161361232.0
2016-Sep-27 10:31N 31°22' E 121°30'49161361229.6
2016-Sep-27 10:31S 20°09' E 057°30'4913340159.5
2016-Sep-27 10:30N 31°32' E 121°20'34843180.7
2016-Sep-27 10:30N 25°58' E 119°27'34737876.8
2016-Sep-27 10:29N 31°30' E 121°23'3759.0
2016-Sep-27 10:29N 31°28' E 121°25'152077.4
2016-Sep-27 10:28N 31°39' E 121°13'451556.3
2016-Sep-27 10:27N 31°59' E 120°26'1466659.3
2016-Sep-27 10:25N 30°00' E 122°06'999173.5
2016-Sep-27 10:25N 31°31' E 121°19'10576.6
2016-Sep-27 10:24N 31°26' E 121°29'5320.1
2016-Sep-27 10:23N 31°29' E 121°25'65932946.3
2016-Sep-27 10:21N 23°04' E 113°29'6577881.5
2016-Sep-27 10:16N 31°20' E 121°33'34135.1
2016-Sep-27 00:33N 25°58' E 119°27'328196508.8
2016-Sep-27 00:33N 31°13' E 121°09'215508.0
2016-Sep-27 00:33N 31°29' E 121°25'172197.0
2016-Sep-27 00:32N 31°41' E 121°11'11021930.8
2016-Sep-27 00:32N 29°59' E 121°56'4888366583.6
2016-Sep-27 00:31S 20°09' E 057°29'4896979227.3
2016-Sep-27 00:31N 30°00' E 122°06'50085745.4
2016-Sep-27 00:31N 23°06' E 116°53'4407151108.3
2016-Sep-27 00:29S 20°09' E 057°29'4914769086.6
2016-Sep-27 00:29N 31°32' E 121°20'70251404.9
2016-Sep-27 00:29N 31°57' E 120°03'8310696.9
2016-Sep-27 00:28N 31°21' E 121°31'65624357.6
2016-Sep-27 00:26N 23°04' E 113°29'63810636.5
2016-Sep-27 00:23N 32°00' E 119°59'132.2
2016-Sep-27 00:20N 31°59' E 120°00'6387000.7
2016-Sep-27 00:15N 23°04' E 113°29'6584493.1
2016-Sep-27 00:06N 31°23' E 121°31'34396.7
2016-Sep-26 20:33N 25°58' E 119°27'364187081.5
2016-Sep-26 20:33N 31°59' E 120°19'577952.8
2016-Sep-26 20:33N 31°33' E 121°19'101555.6
2016-Sep-26 20:32N 31°27' E 121°29'6619902.2
2016-Sep-26 20:32N 31°59' E 120°21'48852930790.2
2016-Sep-26 20:32S 20°09' E 057°29'4872701569.5
2016-Sep-26 20:31N 31°57' E 120°06'836499.3
2016-Sep-26 20:31N 31°15' E 121°31'12975.8
2016-Sep-26 20:30N 31°27' E 121°28'111200534.8
2016-Sep-26 20:30N 29°41' E 122°07'489110115.9
2016-Sep-26 20:30N 37°49' E 121°25'35716707.6
2016-Sep-26 20:28N 31°57' E 120°13'6237108.5
2016-Sep-26 20:28N 31°32' E 121°20'4470.6
2016-Sep-26 20:28N 31°30' E 121°24'65920099.1
2016-Sep-26 20:26N 23°04' E 113°29'1024204854.3
2016-Sep-26 20:26N 38°43' E 121°26'52453848.6
2016-Sep-26 20:25N 30°00' E 122°06'951790.2
2016-Sep-26 20:22N 31°29' E 121°25'6597676.4
2016-Sep-26 20:17N 23°04' E 113°29'610849.4
2016-Sep-26 19:33N 29°41' E 122°07'26447554.6
2016-Sep-26 19:33N 25°58' E 119°27'367661340.2
2016-Sep-26 19:33N 32°02' E 120°24'65155822.5
2016-Sep-26 19:32N 23°04' E 113°29'65948446.5
2016-Sep-26 19:32N 31°38' E 121°15'5294270.3
2016-Sep-26 19:32N 31°58' E 120°18'48821757487.1
2016-Sep-26 19:31S 20°09' E 057°29'4896734429.1
2016-Sep-26 19:31N 30°00' E 122°06'9738753.3
2016-Sep-26 19:31N 31°30' E 121°24'11775.7
2016-Sep-26 19:30N 31°21' E 121°31'4916285449.2
2016-Sep-26 19:29S 20°09' E 057°29'4914589636.4
2016-Sep-26 19:28N 31°32' E 121°20'55913409.5
2016-Sep-26 19:26N 23°05' E 116°54'54812099.8
2016-Sep-26 19:23N 31°15' E 121°31'81424.8
2016-Sep-26 19:23N 31°23' E 121°30'865.6
2016-Sep-26 19:16N 31°29' E 121°25'4171.0
2016-Sep-26 19:15N 31°31' E 121°21'5414.7
2016-Sep-26 15:33N 31°59' E 120°26'371924.9
2016-Sep-26 15:32N 31°44' E 121°06'49101473056.5
2016-Sep-26 15:32S 20°09' E 057°29'44055286044.7
2016-Sep-26 15:32N 23°05' E 116°50'55599908.5
2016-Sep-26 15:32N 31°21' E 121°31'154060.2
2016-Sep-26 15:31N 31°32' E 121°20'49134422125.5
2016-Sep-26 15:31S 20°09' E 057°29'48892933127.5
2016-Sep-26 15:31N 29°58' E 121°58'71080.4
2016-Sep-26 15:31N 30°00' E 122°06'28021937.8
2016-Sep-26 15:30N 25°58' E 119°27'36919531.9
2016-Sep-26 15:29N 23°04' E 113°29'647211614.3
2016-Sep-26 15:29N 31°58' E 120°20'41421.9
2016-Sep-26 15:23N 31°45' E 121°06'660113162.2
2016-Sep-26 15:23N 23°04' E 113°29'28144.0
2016-Sep-26 15:11N 22°36' E 113°25'386236.8
2016-Sep-26 13:33N 25°58' E 119°27'35712616.7
2016-Sep-26 13:31N 31°45' E 121°04'11713629.9
2016-Sep-26 13:31N 30°00' E 122°06'9743638.7
2016-Sep-26 13:31N 31°30' E 121°24'573136.0
2016-Sep-26 13:30N 31°59' E 120°26'4888439958.0
2016-Sep-26 13:29S 20°09' E 057°29'026.2
2016-Sep-26 13:28S 20°09' E 057°29'4913453551.7
2016-Sep-26 13:28N 31°32' E 121°20'664509.5
2016-Sep-26 13:27N 31°57' E 120°07'63953467.9
2016-Sep-26 13:26N 23°04' E 113°29'65911029.0
2016-Sep-26 13:23N 31°47' E 121°01'6599881.0
2016-Sep-26 13:19N 23°04' E 113°29'660377.1
2016-Sep-26 11:34N 31°39' E 121°14'35438606.2
2016-Sep-26 11:33N 25°58' E 119°27'4630260457.2
2016-Sep-26 11:32S 20°09' E 057°29'023.4
2016-Sep-26 11:31S 20°09' E 057°29'4896518414.8
2016-Sep-26 11:31N 30°00' E 122°06'1145132.4
2016-Sep-26 11:29N 31°43' E 121°08'15500.4
2016-Sep-26 11:28N 31°32' E 121°20'15527.5
2016-Sep-26 11:26N 31°21' E 121°31'65626250.0
2016-Sep-26 11:24N 23°04' E 113°29'65021669.4
2016-Sep-26 11:23N 31°59' E 120°26'702977.1
2016-Sep-26 11:21N 31°15' E 121°31'151933.3
2016-Sep-26 11:21N 31°29' E 121°25'4 1.5
2016-Sep-26 08:33N 31°27' E 121°29'34654197.7
2016-Sep-26 08:33N 25°58' E 119°27'718861324.0
2016-Sep-26 08:33N 37°49' E 121°21'974166954.0
2016-Sep-26 08:33N 23°04' E 113°29'659169337.4
2016-Sep-26 08:32N 31°34' E 121°19'51283.7
2016-Sep-26 08:32N 31°30' E 121°24'5910650.8
2016-Sep-26 08:32N 32°01' E 120°24'488817597350.3
2016-Sep-26 08:32S 20°09' E 057°29'49155898499.9
2016-Sep-26 08:32N 31°32' E 121°22'491617695830.2
2016-Sep-26 08:32S 20°09' E 057°29'4896267075.4
2016-Sep-26 08:31N 30°00' E 122°06'958815.0
2016-Sep-26 08:30N 31°29' E 121°25'6296.3
2016-Sep-26 08:29N 31°32' E 121°20'141729.9
2016-Sep-26 08:28N 31°22' E 121°30'663357.5
2016-Sep-26 08:27N 31°59' E 120°26'15107.4
2016-Sep-26 08:19N 31°57' E 120°09'6409974.8
2016-Sep-26 08:15N 23°04' E 113°29'65813313.6
2016-Sep-26 08:12N 31°30' E 121°23'6311.1
2016-Sep-26 02:33N 31°57' E 120°17'35667479.9
2016-Sep-26 02:33N 37°49' E 121°22'38819395.6
2016-Sep-26 02:31N 31°22' E 121°30'876786.4
2016-Sep-26 02:31N 30°00' E 122°06'1002902.8
2016-Sep-26 02:28N 31°32' E 121°20'603483.5
2016-Sep-26 02:27N 31°56' E 120°15'4878109076.3
2016-Sep-26 02:25S 20°09' E 057°29'4916376526.4
2016-Sep-26 02:24N 31°30' E 121°24'721099.5
2016-Sep-26 02:20N 31°57' E 120°05'743582.0
2016-Sep-26 02:19N 31°29' E 121°25'8284.7
2016-Sep-26 02:17N 31°22' E 121°30'69028867.9
2016-Sep-26 02:16N 22°09' E 113°49'101186661.2
2016-Sep-26 02:15N 37°44' E 121°13'9661396.5
2016-Sep-26 01:33N 23°04' E 113°29'65214568.9
2016-Sep-26 01:31N 31°15' E 121°31'1970152.1
2016-Sep-26 01:31N 31°32' E 121°20'491497194.5
2016-Sep-26 01:28S 20°09' E 057°29'491668592.1
2016-Sep-26 01:23N 31°30' E 121°24'11594.9
2016-Sep-26 01:22N 31°21' E 121°30'122.3
2016-Sep-26 01:20N 31°22' E 121°30'88694.1
2016-Sep-26 01:12N 30°00' E 122°06'4653797.2
2016-Sep-26 01:05N 37°43' E 121°12'51329567.2
2016-Sep-26 00:33S 20°09' E 057°29'42431697367.4
2016-Sep-26 00:33N 23°04' E 113°29'65821528.1
2016-Sep-26 00:31N 31°32' E 121°20'10011247.0
2016-Sep-26 00:30N 30°00' E 122°06'62212870.2
2016-Sep-26 00:27N 23°04' E 113°29'439.1
2016-Sep-26 00:21N 23°00' E 113°31'6611189570.2
2016-Sep-26 00:21N 31°29' E 121°25'3711953.7
2016-Sep-26 00:09N 37°40' E 121°08'3446318.0
2016-Sep-26 00:06N 31°58' E 120°25'413162.4
2016-Sep-25 21:33N 38°47' E 121°34'103035329.3
2016-Sep-25 21:32N 23°04' E 113°29'65678732.6
2016-Sep-25 21:31N 31°21' E 121°30'41879.0
2016-Sep-25 21:31N 31°23' E 121°34'875420.1
2016-Sep-25 21:30N 30°00' E 122°06'96114608.6
2016-Sep-25 21:30N 31°29' E 121°25'4916224038.8
2016-Sep-25 21:29S 20°09' E 057°29'4914552793.8
2016-Sep-25 21:28N 31°32' E 121°20'192327.9
2016-Sep-25 21:28N 31°15' E 121°31'81357.0
2016-Sep-25 21:14N 29°58' E 121°59'9726.0
2016-Sep-25 17:30N 31°30' E 121°24'4916333904.6
2016-Sep-25 17:29S 20°09' E 057°29'4916491586.1
2016-Sep-25 17:28N 31°22' E 121°30'141521.7
2016-Sep-25 17:28N 31°32' E 121°20'61325.8
2016-Sep-25 17:27N 31°29' E 121°25'65918976.2
2016-Sep-25 17:25N 23°04' E 113°29'64954330.4
2016-Sep-25 17:25N 31°58' E 120°25'711485.3
2016-Sep-25 17:22N 31°15' E 121°31'65312564.0
2016-Sep-25 17:19N 23°01' E 113°32'6105983.7
2016-Sep-25 17:13N 29°44' E 122°03'1013960.7
2016-Sep-25 17:11N 31°21' E 121°31'1423.0
2016-Sep-25 16:34N 31°32' E 121°20'5211792.6
2016-Sep-25 16:33N 31°58' E 120°26'15523227.9
2016-Sep-25 16:33N 29°49' E 122°05'918631.6
2016-Sep-25 16:32N 31°15' E 121°31'151677.8
2016-Sep-25 16:32N 31°29' E 121°25'91064.8
2016-Sep-25 16:31N 31°22' E 121°30'109352.4
2016-Sep-25 16:31N 31°30' E 121°24'66043195.2
2016-Sep-25 16:30N 23°01' E 113°32'4230.4
2016-Sep-25 16:29N 23°04' E 113°29'4243694377.6
2016-Sep-25 16:29S 20°09' E 057°29'424324999.2
2016-Sep-25 16:19N 22°55' E 113°36'1154.7
2016-Sep-25 16:07N 23°04' E 113°29'6181120.3
2016-Sep-25 15:34N 29°55' E 122°05'61929298.2
2016-Sep-25 15:32N 22°57' E 113°35'4244587641.8
2016-Sep-25 15:32S 20°09' E 057°29'4916769438.0
2016-Sep-25 15:31N 31°22' E 121°30'65617367.6
2016-Sep-25 15:29N 23°04' E 113°29'65929284.4
2016-Sep-25 15:28N 31°29' E 121°25'681.5
2016-Sep-25 15:24N 31°32' E 121°20'659148275.6
2016-Sep-25 15:23N 23°01' E 113°32'66014573.3
2016-Sep-25 15:21N 31°30' E 121°24'16197.0
2016-Sep-25 15:16N 31°15' E 121°31'61320.1
2016-Sep-25 15:16N 31°21' E 121°31'65616753.1
2016-Sep-25 15:13N 23°04' E 113°29'658975.0
2016-Sep-25 14:33N 31°32' E 121°20'658473624.5
2016-Sep-25 14:33N 23°04' E 113°29'4243299535.4
2016-Sep-25 14:32S 20°09' E 057°29'4239339118.3
2016-Sep-25 14:31N 23°03' E 113°25'115815.2
2016-Sep-25 14:31N 22°57' E 113°35'5152.7
2016-Sep-25 14:29N 23°01' E 113°32'660158366.7
2016-Sep-25 14:29N 31°30' E 121°24'111261.9
2016-Sep-25 14:28N 31°22' E 121°30'65622497.0
2016-Sep-25 14:26N 23°04' E 113°29'61219502.5
2016-Sep-25 14:25N 29°57' E 121°54'804007.6
2016-Sep-25 14:23N 31°15' E 121°31'15136.0
2016-Sep-25 14:17N 31°29' E 121°25'4916155249.7
2016-Sep-25 14:15S 20°09' E 057°30'491674987.4
2016-Sep-25 14:11N 31°21' E 121°31'2182.4
2016-Sep-25 14:10N 31°20' E 121°33'20821292.7
2016-Sep-25 12:33N 01°53' E 102°24'2971289072.9
2016-Sep-25 12:33S 20°09' E 057°30'491617698470.3
2016-Sep-25 12:33N 31°29' E 121°25'4916280934.8
2016-Sep-25 12:32S 20°09' E 057°29'4896155991.5
2016-Sep-25 12:30N 30°00' E 122°06'10010283.6
2016-Sep-25 12:29N 31°32' E 121°20'4436.4
2016-Sep-25 12:29N 31°30' E 121°24'65938878.5
2016-Sep-25 12:28N 23°04' E 113°29'65634234.6
2016-Sep-25 12:27N 31°21' E 121°31'6112.7
2016-Sep-25 12:23N 31°15' E 121°31'12137.1
2016-Sep-25 12:18N 31°26' E 121°25'65817284.4
2016-Sep-25 12:16N 23°01' E 113°32'661938.5
2016-Sep-25 11:33N 31°41' E 121°12'4912609820.1
2016-Sep-25 11:33S 20°09' E 057°30'025.0
2016-Sep-25 11:32S 20°09' E 057°29'4916804424.8
2016-Sep-25 11:31N 31°22' E 121°30'14361.0
2016-Sep-25 11:29N 31°32' E 121°20'218441.9
2016-Sep-25 11:29N 31°13' E 121°30'123.0
2016-Sep-25 11:26N 31°14' E 121°30'130.3
2016-Sep-25 11:23N 31°15' E 121°31'15370.8
2016-Sep-25 11:21N 31°29' E 121°25'12433.7
2016-Sep-25 11:19N 31°23' E 121°37'66128345.0
2016-Sep-25 11:18N 23°04' E 113°29'62220735.6
2016-Sep-25 11:16N 30°00' E 122°06'861003.3
2016-Sep-25 11:11N 31°21' E 121°31'1727.5
2016-Sep-25 10:33N 31°35' E 121°18'66164279.8
2016-Sep-25 10:33N 23°01' E 113°32'65773944.5
2016-Sep-25 10:32N 31°21' E 121°31'49161608858.7
2016-Sep-25 10:32S 20°09' E 057°29'4916393257.2
2016-Sep-25 10:31N 31°30' E 121°24'4916268123.5
2016-Sep-25 10:30S 20°09' E 057°30'42431272999.0
2016-Sep-25 10:30N 23°04' E 113°29'65851485.2
2016-Sep-25 10:29N 31°32' E 121°20'54915.5
2016-Sep-25 10:29N 31°29' E 121°25'6595465.3
2016-Sep-25 10:22N 23°04' E 113°29'65510252.4
2016-Sep-25 10:18N 31°17' E 121°34'566.9
2016-Sep-25 10:13N 31°22' E 121°30'580.5
2016-Sep-25 10:09N 31°17' E 121°34'81939.3
2016-Sep-25 10:04N 30°00' E 122°06'96186.1
2016-Sep-25 09:33N 31°30' E 121°26'491717701482.3
2016-Sep-25 09:33S 20°09' E 057°30'4917708039.6
2016-Sep-25 09:32N 31°20' E 121°33'302750.7
2016-Sep-25 09:32N 31°42' E 121°09'191175.2
2016-Sep-25 09:31N 31°29' E 121°25'65935404.2
2016-Sep-25 09:30N 23°04' E 113°29'6581184505.2
2016-Sep-25 09:30N 31°32' E 121°20'41848572.9
2016-Sep-25 09:29N 24°52' E 119°01'418107538.1
2016-Sep-25 09:29N 31°32' E 121°20'49141608134.6
2016-Sep-25 09:29S 20°09' E 057°29'491677962.8
2016-Sep-25 09:25N 31°21' E 121°31'864507.2
2016-Sep-25 09:24N 30°00' E 122°06'811934.1
2016-Sep-25 09:21N 31°15' E 121°31'6175.9
2016-Sep-25 09:19N 31°22' E 121°30'101110.3
2016-Sep-25 09:19N 31°30' E 121°24'1171.5
2016-Sep-25 09:09N 31°21' E 121°31'679.0
2016-Sep-25 09:05N 31°23' E 121°37'423278.8
2016-Sep-25 07:34N 24°45' E 118°54'4562421100.5
2016-Sep-25 07:33S 20°09' E 057°30'4917411675.1
2016-Sep-25 07:32N 31°26' E 121°29'4917842973.2
2016-Sep-25 07:32S 20°09' E 057°29'4916411560.1
2016-Sep-25 07:31N 31°22' E 121°30'61453.7
2016-Sep-25 07:31N 31°15' E 121°31'814532.6
2016-Sep-25 07:30N 30°00' E 122°06'1006540.5
2016-Sep-25 07:29N 31°32' E 121°20'610017.3
2016-Sep-25 07:29N 31°29' E 121°25'135208.2
2016-Sep-25 07:29N 31°18' E 121°34'4115.1
2016-Sep-25 07:27N 31°21' E 121°31'11757.3
2016-Sep-25 07:26N 31°30' E 121°24'484.0
2016-Sep-25 07:23N 31°32' E 121°20'65862341.0
2016-Sep-25 07:23N 23°04' E 113°29'6591186809.1
2016-Sep-25 07:23N 31°39' E 121°13'65913719.1
2016-Sep-25 07:20N 23°04' E 113°29'4213.9
2016-Sep-25 07:18N 23°01' E 113°32'661240.1
2016-Sep-25 04:33N 31°39' E 121°13'4913477974.5
2016-Sep-25 04:33S 20°09' E 057°30'4895800979.7
2016-Sep-25 04:32N 32°04' E 120°30'5811080.3
2016-Sep-25 04:32N 31°29' E 121°25'4916842811.8
2016-Sep-25 04:32S 20°09' E 057°29'4916376534.6
2016-Sep-25 04:31N 31°22' E 121°30'6580.7
2016-Sep-25 04:30N 31°16' E 121°33'171488.3
2016-Sep-25 04:30N 31°30' E 121°24'113509.3
2016-Sep-25 04:30N 31°21' E 121°31'195261.9
2016-Sep-25 04:29N 31°36' E 121°17'66072039.8
2016-Sep-25 04:29N 23°01' E 113°32'659263588.4
2016-Sep-25 04:29N 31°32' E 121°20'054.8
2016-Sep-25 04:28N 31°32' E 121°20'10012818.6
2016-Sep-25 04:28N 30°00' E 122°06'1121606.0
2016-Sep-25 04:23N 31°42' E 121°10'1261082.1
2016-Sep-25 04:16N 29°53' E 122°22'2027544.5
2016-Sep-25 00:33N 01°12' E 103°51'1627836824.0
2016-Sep-25 00:33N 24°21' E 118°19'162307.7
2016-Sep-25 00:33N 24°10' E 118°07'483347681.7
2016-Sep-25 00:33N 31°50' E 120°55'19499.9
2016-Sep-25 00:30N 31°40' E 121°14'9304.5
2016-Sep-25 00:28N 31°32' E 121°20'1006204.9
2016-Sep-25 00:28N 30°00' E 122°06'872212.4
2016-Sep-25 00:25N 31°22' E 121°30'10432.8
2016-Sep-25 00:24N 31°30' E 121°24'563197.4
2016-Sep-25 00:23N 31°58' E 120°27'581490.1
2016-Sep-25 00:20N 31°29' E 121°25'941279.6
2016-Sep-25 00:16N 29°58' E 121°54'10762.6
2016-Sep-24 22:33N 31°40' E 121°14'466419574.9
2016-Sep-24 22:33N 24°24' E 118°05'46756009.1
2016-Sep-24 22:33N 31°42' E 121°10'66033922.4
2016-Sep-24 22:32N 23°04' E 113°29'61985657.7
2016-Sep-24 22:31N 29°52' E 122°08'406146141.4
2016-Sep-24 22:31N 24°09' E 118°06'46954463.1
2016-Sep-24 22:31N 31°21' E 121°30'65710705.0
2016-Sep-24 22:27N 23°01' E 113°31'629251523.2
2016-Sep-24 22:27N 29°53' E 122°22'1131503.9
2016-Sep-24 22:22N 31°32' E 121°20'467.4
2016-Sep-24 22:19N 31°30' E 121°24'974848.2
2016-Sep-24 22:18N 30°00' E 122°06'806123.5
2016-Sep-24 22:17N 31°14' E 121°30'7016703.9
2016-Sep-24 22:17N 31°58' E 120°27'662226.6
2016-Sep-24 22:15N 31°21' E 121°30'467675.4
2016-Sep-24 21:33N 24°10' E 118°07'1658621.5
2016-Sep-24 21:33N 24°24' E 117°58'38799496.6
2016-Sep-24 21:33N 29°44' E 122°03'1225559.5
2016-Sep-24 21:32N 31°38' E 121°14'1214491.2
2016-Sep-24 21:30N 29°53' E 122°22'161360.7
2016-Sep-24 21:29N 30°00' E 122°06'971035.1
2016-Sep-24 21:24N 31°30' E 121°24'297.9
2016-Sep-24 21:23N 31°29' E 121°25'5441.8
2016-Sep-24 21:22N 31°32' E 121°20'1412929.5
2016-Sep-24 21:22N 31°21' E 121°31'65643751.5
2016-Sep-24 21:21N 23°04' E 113°29'66052830.1
2016-Sep-24 21:20N 31°40' E 121°14'662103539.9
2016-Sep-24 21:20N 23°01' E 113°31'65268983.2
2016-Sep-24 21:19N 31°58' E 120°27'667150.1
2016-Sep-24 21:19N 31°22' E 121°30'34134.9
2016-Sep-24 21:04N 31°46' E 121°03'12 8.0
2016-Sep-24 19:33N 31°38' E 121°14'12047846.2
2016-Sep-24 19:33N 29°47' E 122°04'12210209.9
2016-Sep-24 19:33N 31°40' E 121°12'1207.2
2016-Sep-24 19:32N 31°41' E 121°13'1361.3
2016-Sep-24 19:32N 31°40' E 121°14'696104370.7
2016-Sep-24 19:32N 22°08' E 113°49'68985476.2
2016-Sep-24 19:31N 31°58' E 120°27'668136.7
2016-Sep-24 19:31N 31°22' E 121°30'1425116.8
2016-Sep-24 19:31N 31°32' E 121°20'4207.8
2016-Sep-24 19:30N 31°30' E 121°24'113550.3
2016-Sep-24 19:30N 31°21' E 121°31'862098.3
2016-Sep-24 19:27N 30°00' E 122°06'41564890.7
2016-Sep-24 19:27N 24°07' E 118°03'2588278.9
2016-Sep-24 19:25N 23°01' E 113°31'11120.2
2016-Sep-24 19:19N 22°54' E 113°22'671114972.6
2016-Sep-24 19:19N 31°29' E 121°25'65931629.3
2016-Sep-24 19:18N 23°04' E 113°29'6284853.1
2016-Sep-24 19:10N 29°53' E 122°22'99836.2
2016-Sep-24 19:03N 31°21' E 121°31'2245.4
2016-Sep-24 18:33N 31°38' E 121°14'4523036.7
2016-Sep-24 18:33N 31°58' E 120°27'2215501.3
2016-Sep-24 18:33N 31°59' E 120°01'16735285.2
2016-Sep-24 18:33N 29°52' E 122°08'11519704.9
2016-Sep-24 18:33N 31°38' E 121°15'12926.5
2016-Sep-24 18:32N 31°29' E 121°25'65932494.1
2016-Sep-24 18:31N 23°04' E 113°29'656472484.2
2016-Sep-24 18:31N 31°21' E 121°31'231905.9
2016-Sep-24 18:30N 31°39' E 121°13'10810805.7
2016-Sep-24 18:29N 30°00' E 122°06'8914502.5
2016-Sep-24 18:29N 31°24' E 121°31'2152.2
2016-Sep-24 18:28N 31°22' E 121°30'1412558.4
2016-Sep-24 18:28N 31°32' E 121°20'65911137.7
2016-Sep-24 18:24N 23°01' E 113°31'65724898.2
2016-Sep-24 18:23N 31°21' E 121°30'6627494.8
2016-Sep-24 18:17N 23°02' E 113°21'665906.8
2016-Sep-24 17:33N 31°38' E 121°14'6622383271.9
2016-Sep-24 17:33N 23°04' E 113°25'659148272.2
2016-Sep-24 17:33N 31°21' E 121°31'235834.4
2016-Sep-24 17:33N 31°39' E 121°13'11244758.5
2016-Sep-24 17:33N 29°55' E 122°03'10777342.4
2016-Sep-24 17:33N 31°35' E 121°18'492070.7
2016-Sep-24 17:31N 31°58' E 120°27'161004.9
2016-Sep-24 17:30N 31°57' E 120°08'64174441.8
2016-Sep-24 17:30N 23°01' E 113°31'62364057.8
2016-Sep-24 17:29N 30°00' E 122°06'9524553.3
2016-Sep-24 17:29N 31°29' E 121°25'9531.8
2016-Sep-24 17:28N 31°22' E 121°30'145577.9
2016-Sep-24 17:28N 31°32' E 121°20'1451718.2
2016-Sep-24 17:28N 31°21' E 121°31'656393745.2
2016-Sep-24 17:28N 23°04' E 113°29'660731.6
2016-Sep-24 16:33N 31°40' E 121°13'10812190.1
2016-Sep-24 16:33N 29°57' E 121°54'612169591.2
2016-Sep-24 16:33N 23°03' E 113°30'659395194.0
2016-Sep-24 16:33N 31°32' E 121°21'9884.2
2016-Sep-24 16:32N 31°39' E 121°14'5421412.9
2016-Sep-24 16:32N 31°56' E 120°14'737733.3
2016-Sep-24 16:31N 31°22' E 121°30'6521230.6
2016-Sep-24 16:31N 31°58' E 120°27'526703.6
2016-Sep-24 16:31N 31°32' E 121°20'5637.5
2016-Sep-24 16:30N 31°29' E 121°25'66039599.0
2016-Sep-24 16:29N 23°01' E 113°31'623373699.2
2016-Sep-24 16:29N 30°00' E 122°06'871253.8
2016-Sep-24 16:25N 31°22' E 121°30'15131.9
2016-Sep-24 16:18N 31°33' E 121°20'65814999.0
2016-Sep-24 16:16N 23°04' E 113°29'660388.0
2016-Sep-24 14:34N 31°40' E 121°13'4913769067.3
2016-Sep-24 14:33S 20°09' E 057°29'4243381908.1
2016-Sep-24 14:32N 23°04' E 113°29'4243436465.9
2016-Sep-24 14:32S 20°09' E 057°29'4916299983.8
2016-Sep-24 14:31N 31°29' E 121°25'155379.3
2016-Sep-24 14:31N 31°40' E 121°13'108727.7
2016-Sep-24 14:31N 31°32' E 121°20'14648.8
2016-Sep-24 14:29N 31°21' E 121°31'11485.5
2016-Sep-24 14:28N 31°30' E 121°24'5650455.5
2016-Sep-24 14:28N 31°58' E 120°27'652781804.0
2016-Sep-24 14:28N 23°01' E 113°31'6592792.4
2016-Sep-24 14:14N 31°32' E 121°20'10 5.7
2016-Sep-24 12:33N 31°40' E 121°13'49131965389.4
2016-Sep-24 12:33S 20°09' E 057°29'0 0.0
2016-Sep-24 12:32S 20°09' E 057°29'49161264123.6
2016-Sep-24 12:32N 31°21' E 121°31'026.8
2016-Sep-24 12:31N 31°22' E 121°30'6639323.2
2016-Sep-24 12:31N 31°58' E 120°27'6521173045.7
2016-Sep-24 12:31N 23°01' E 113°32'661396886.6
2016-Sep-24 12:31N 31°40' E 121°13'137.9
2016-Sep-24 12:29N 31°40' E 121°12'15356.6
2016-Sep-24 12:27N 31°29' E 121°25'6598208.4
2016-Sep-24 12:22N 23°04' E 113°29'65933402.2
2016-Sep-24 12:21N 31°30' E 121°24'971485.5
2016-Sep-24 12:17N 30°00' E 122°06'17272.2
2016-Sep-24 12:13N 29°43' E 122°02'12474.6
2016-Sep-24 10:34N 31°40' E 121°13'0555.4
2016-Sep-24 10:33N 31°40' E 121°13'4913769042.6
2016-Sep-24 10:33S 20°09' E 057°29'0 6.8
2016-Sep-24 10:33S 20°09' E 057°29'49141768937.9
2016-Sep-24 10:33N 31°32' E 121°20'142261.0
2016-Sep-24 10:32N 31°21' E 121°31'42122645.5
2016-Sep-24 10:31N 24°40' E 119°05'35457930.0
2016-Sep-24 10:31N 29°55' E 122°07'10326357.3
2016-Sep-24 10:31N 31°30' E 121°24'5620140.6
2016-Sep-24 10:31N 31°58' E 120°27'65233999.2
2016-Sep-24 10:29N 23°01' E 113°32'66410774.4
2016-Sep-24 10:26N 31°23' E 121°41'9581.5
2016-Sep-24 10:25N 31°21' E 121°30'9501.5
2016-Sep-24 10:24N 31°29' E 121°25'965641.7
2016-Sep-24 10:23N 30°00' E 122°06'62215132.5
2016-Sep-24 10:20N 23°04' E 113°29'6572652.6
2016-Sep-24 10:05N 31°26' E 121°25'1630.7
2016-Sep-24 09:33N 31°40' E 121°13'10816262.1
2016-Sep-24 09:33N 29°59' E 122°02'9935785.8
2016-Sep-24 09:33N 31°32' E 121°20'7427.5
2016-Sep-24 09:32N 31°26' E 121°25'17783.6
2016-Sep-24 09:31N 31°40' E 121°13'4913680313.9
2016-Sep-24 09:30S 20°09' E 057°29'0 3.4
2016-Sep-24 09:30S 20°09' E 057°29'4916983208.7
2016-Sep-24 09:30N 31°21' E 121°31'65742258.4
2016-Sep-24 09:29N 23°01' E 113°32'6609620.7
2016-Sep-24 09:25N 31°29' E 121°25'251.7
2016-Sep-24 09:23N 31°30' E 121°24'9749871.3
2016-Sep-24 09:23N 30°00' E 122°06'875886.5
2016-Sep-24 09:22N 31°22' E 121°30'656590608.1
2016-Sep-24 09:22N 23°04' E 113°29'3147445.9
2016-Sep-24 09:19N 24°41' E 118°56'56330.5
2016-Sep-24 09:09N 24°24' E 117°58'46983.8
2016-Sep-24 03:33N 31°40' E 121°14'9587.7
2016-Sep-24 03:32N 31°32' E 121°20'4257.3
2016-Sep-24 03:31N 31°30' E 121°24'141592.1
2016-Sep-24 03:31N 31°40' E 121°13'491317685889.6
2016-Sep-24 03:31S 20°08' E 057°29'4888567655.2
2016-Sep-24 03:30N 31°58' E 120°27'537697.8
2016-Sep-24 03:30N 31°31' E 121°21'43338.1
2016-Sep-24 03:30N 31°30' E 121°25'1661.4
2016-Sep-24 03:30N 31°30' E 121°24'292.2
2016-Sep-24 03:29N 31°29' E 121°25'4916632093.3
2016-Sep-24 03:28S 20°09' E 057°30'491645261.3
2016-Sep-24 03:22N 31°21' E 121°31'0116.2
2016-Sep-24 03:22N 31°22' E 121°30'87981.0
2016-Sep-24 03:16N 30°00' E 122°06'109152.5
2016-Sep-24 02:33N 31°40' E 121°14'4687.2
2016-Sep-24 02:33N 31°36' E 121°16'101392.6
2016-Sep-24 02:33N 31°30' E 121°25'52025.8
2016-Sep-24 02:32N 31°32' E 121°20'5211033.3
2016-Sep-24 02:32N 31°58' E 120°27'48892933202.4
2016-Sep-24 02:32S 20°09' E 057°30'4916931396.0
2016-Sep-24 02:32N 31°30' E 121°24'058.0
2016-Sep-24 02:31N 31°30' E 121°24'49168848107.1
2016-Sep-24 02:31S 20°09' E 057°30'49131179184.1
2016-Sep-24 02:31N 31°40' E 121°13'155369.7
2016-Sep-24 02:31N 31°29' E 121°25'9162.9
2016-Sep-24 02:28N 31°22' E 121°30'1 6.3
2016-Sep-24 02:21N 31°22' E 121°30'1051615.0
2016-Sep-24 02:18N 29°42' E 122°05'126170.0
2016-Sep-24 01:33N 31°40' E 121°14'9655.8
2016-Sep-24 01:32N 31°32' E 121°20'4914982716.9
2016-Sep-24 01:32S 20°09' E 057°30'48872931961.0
2016-Sep-24 01:32N 29°47' E 122°04'1099591.0
2016-Sep-24 01:31N 31°30' E 121°24'138014.4
2016-Sep-24 01:31N 31°40' E 121°13'152988.5
2016-Sep-24 01:31N 31°29' E 121°25'92912.6
2016-Sep-24 01:31N 31°22' E 121°30'6614747.7
2016-Sep-24 01:30N 31°58' E 120°27'563325.5
2016-Sep-24 01:29N 31°30' E 121°24'961661.5
2016-Sep-24 01:26N 30°00' E 122°06'4896629522.1
2016-Sep-24 01:25S 20°09' E 057°30'491615887.0
2016-Sep-24 01:07N 31°30' E 121°25'9225.9
2016-Sep-24 01:05N 31°22' E 121°30'0 0.0
2016-Sep-24 00:33N 31°22' E 121°30'2340711.4
2016-Sep-24 00:33N 31°40' E 121°13'44157962.3
2016-Sep-24 00:33N 31°58' E 120°27'151543448.9
2016-Sep-24 00:33N 29°55' E 122°08'10328437.5
2016-Sep-24 00:33N 31°30' E 121°24'4916305109.4
2016-Sep-24 00:32S 20°09' E 057°30'0 0.5
2016-Sep-24 00:31S 20°09' E 057°30'49131965288.4
2016-Sep-24 00:31N 31°40' E 121°13'16524.6
2016-Sep-24 00:29N 31°28' E 121°25'65604.1
2016-Sep-24 00:29N 31°32' E 121°20'4252.2
2016-Sep-24 00:28N 31°30' E 121°24'10844.2
2016-Sep-24 00:28N 31°22' E 121°30'9320.1
2016-Sep-24 00:26N 31°29' E 121°25'10 2.0
2016-Sep-23 19:34N 31°21' E 121°31'2414466.8
2016-Sep-23 19:33N 31°40' E 121°13'131448.3
2016-Sep-23 19:33N 31°30' E 121°24'4257.9
2016-Sep-23 19:32N 31°32' E 121°20'101342.7
2016-Sep-23 19:32N 31°40' E 121°13'4913116366.8
2016-Sep-23 19:29S 20°09' E 057°30'4916141568.5
2016-Sep-23 19:27N 31°30' E 121°24'373134418.8
2016-Sep-23 19:27N 37°43' E 121°36'37335340.2
2016-Sep-23 19:26N 31°30' E 121°23'4915376454.3
2016-Sep-23 19:25S 20°09' E 057°30'45612345865.8
2016-Sep-23 19:25N 24°41' E 118°56'42337127.0
2016-Sep-23 19:25N 31°21' E 121°30'8577.4
2016-Sep-23 19:24N 31°28' E 121°25'113.0
2016-Sep-23 19:19N 31°29' E 121°25'14 8.2
2016-Sep-23 17:33N 31°40' E 121°14'1018867.2
2016-Sep-23 17:33N 31°31' E 121°21'1140.1
2016-Sep-23 17:33N 31°32' E 121°21'111157.4
2016-Sep-23 17:33N 31°25' E 121°30'12904.1
2016-Sep-23 17:32N 31°32' E 121°20'176154.3
2016-Sep-23 17:32N 31°22' E 121°36'11386.4
2016-Sep-23 17:30N 31°28' E 121°25'4916340324.4
2016-Sep-23 17:29S 20°09' E 057°30'4913842265.8
2016-Sep-23 17:29N 31°40' E 121°13'1098385.4
2016-Sep-23 17:28N 30°00' E 122°06'871537.8
2016-Sep-23 17:25N 31°22' E 121°30'4916130122.8
2016-Sep-23 17:22S 20°09' E 057°30'49166052.2
2016-Sep-23 16:34N 31°22' E 121°30'198673.9
2016-Sep-23 16:33N 31°37' E 121°16'142107.9
2016-Sep-23 16:33N 31°27' E 121°28'1812917.0
2016-Sep-23 16:33N 31°40' E 121°14'51257.7
2016-Sep-23 16:33N 31°36' E 121°17'6446178.8
2016-Sep-23 16:33N 31°58' E 120°06'17141153.0
2016-Sep-23 16:32N 29°53' E 122°22'4905882840.1
2016-Sep-23 16:32S 20°09' E 057°30'44135295611.7
2016-Sep-23 16:32N 23°20' E 116°50'552331266.8
2016-Sep-23 16:32N 31°40' E 121°13'102061.9
2016-Sep-23 16:32N 31°32' E 121°20'4914552782.6
2016-Sep-23 16:31S 20°09' E 057°30'489692285.6
2016-Sep-23 16:28N 30°00' E 122°06'11210336.5
2016-Sep-23 16:27N 31°41' E 121°09'197528.6
2016-Sep-23 16:27N 31°28' E 121°25'1 5.3
2016-Sep-23 16:13N 31°29' E 121°24'913.9
2016-Sep-23 15:34N 31°22' E 121°30'2383755.3
2016-Sep-23 15:33N 31°40' E 121°13'554664870.0
2016-Sep-23 15:33N 23°20' E 116°45'5541994163.1
2016-Sep-23 15:33N 31°41' E 121°10'664298618.6
2016-Sep-23 15:33N 23°02' E 113°24'665341744.8
2016-Sep-23 15:33N 31°40' E 121°13'82729.5
2016-Sep-23 15:33N 31°45' E 121°05'469239.9
2016-Sep-23 15:33N 31°57' E 120°12'4877450145.1
2016-Sep-23 15:32S 20°09' E 057°30'4914536031.7
2016-Sep-23 15:31N 31°32' E 121°20'4914609967.0
2016-Sep-23 15:31S 20°09' E 057°30'4912200953.3
2016-Sep-23 15:30N 31°40' E 121°12'1103889.2
2016-Sep-23 15:28N 30°00' E 122°06'956420.3
2016-Sep-23 15:27N 31°28' E 121°25'82636.7
2016-Sep-23 15:19N 32°02' E 119°58'80665.4
2016-Sep-23 15:12N 31°30' E 121°24'118.6
2016-Sep-23 15:09N 31°31' E 121°23'12 7.6
2016-Sep-23 13:33N 31°40' E 121°14'61045.5
2016-Sep-23 13:33N 31°43' E 121°07'5310513.6
2016-Sep-23 13:33N 31°57' E 120°08'584747.9
2016-Sep-23 13:32N 31°40' E 121°13'49134421896.2
2016-Sep-23 13:32S 20°09' E 057°30'49168848276.8
2016-Sep-23 13:32N 31°30' E 121°24'4916305113.0
2016-Sep-23 13:31S 20°09' E 057°30'4885428932.0
2016-Sep-23 13:30N 29°58' E 121°53'1467723.6
2016-Sep-23 13:29N 32°03' E 120°26'1506199.3
2016-Sep-23 13:28N 30°00' E 122°06'62221327.2
2016-Sep-23 13:26N 23°04' E 113°29'64041171.4
2016-Sep-23 13:25N 31°57' E 120°10'777894.2
2016-Sep-23 13:25N 31°22' E 121°30'846.5
2016-Sep-23 13:14N 31°28' E 121°25'6407.1
2016-Sep-23 13:13N 31°32' E 121°20'11832.1
2016-Sep-23 09:33N 29°41' E 122°06'127152149.6
2016-Sep-23 09:33N 31°40' E 121°13'103247.8
2016-Sep-23 09:33N 31°32' E 121°21'371222427.4
2016-Sep-23 09:33N 37°43' E 121°32'6616934.5
2016-Sep-23 09:33N 36°53' E 122°26'31518301.8
2016-Sep-23 09:32N 31°45' E 121°06'5110842.7
2016-Sep-23 09:32N 31°57' E 120°07'48731949145.4
2016-Sep-23 09:31S 20°09' E 057°30'49198854425.3
2016-Sep-23 09:31N 31°23' E 121°34'162454.3
2016-Sep-23 09:31N 31°32' E 121°20'4111.5
2016-Sep-23 09:29N 31°30' E 121°24'4916465708.3
2016-Sep-23 09:28S 20°09' E 057°30'4896801207.4
2016-Sep-23 09:28N 30°00' E 122°06'1601140.7
2016-Sep-23 09:19N 31°59' E 120°01'6523.5
2016-Sep-23 06:34N 31°40' E 121°13'10978570.3
2016-Sep-23 06:33N 30°00' E 122°06'105126116.6
2016-Sep-23 06:33N 31°37' E 121°17'554665378.9
2016-Sep-23 06:33N 23°22' E 116°34'49288640.3
2016-Sep-23 06:33N 29°55' E 122°07'10423461.6
2016-Sep-23 06:33N 31°32' E 121°22'36994871.8
2016-Sep-23 06:33N 37°41' E 121°27'36624862.0
2016-Sep-23 06:32N 31°35' E 121°19'49151179509.0
2016-Sep-23 06:31S 20°09' E 057°30'49158847607.9
2016-Sep-23 06:31N 31°30' E 121°24'67121430.2
2016-Sep-23 06:31N 31°56' E 120°10'47840012.6
2016-Sep-23 06:31N 24°11' E 118°07'4504126685.7
2016-Sep-23 06:28S 20°09' E 057°30'51411321856.0
2016-Sep-23 06:28N 37°45' E 121°24'3531270992.8
2016-Sep-23 06:28N 31°58' E 120°03'743066.2
2016-Sep-23 06:27N 31°30' E 121°24'723842.3
2016-Sep-23 06:26N 31°58' E 120°07'674646.3
2016-Sep-23 06:25N 31°32' E 121°20'327.3
2016-Sep-23 06:18N 31°31' E 121°23'1182185.7
2016-Sep-23 06:15N 29°46' E 122°26'12071.0
2016-Sep-23 04:34N 31°32' E 121°20'94210.4
2016-Sep-23 04:33N 31°40' E 121°14'109196348.3
2016-Sep-23 04:33N 30°00' E 122°06'468280685.8
2016-Sep-23 04:33N 37°47' E 121°21'9003239526.1
2016-Sep-23 04:33N 23°18' E 116°47'89542970.5
2016-Sep-23 04:32N 37°42' E 121°18'350629344.9
2016-Sep-23 04:32N 31°57' E 120°15'6412810.3
2016-Sep-23 04:32N 31°30' E 121°24'49151361181.1
2016-Sep-23 04:31S 20°09' E 057°30'051.6
2016-Sep-23 04:31S 20°09' E 057°30'4885703382.9
2016-Sep-23 04:31N 31°59' E 120°21'5395655.4
2016-Sep-23 04:31N 31°36' E 121°17'83341.7
2016-Sep-23 04:31N 31°30' E 121°24'6812924.8
2016-Sep-23 04:30N 31°56' E 120°10'1747277.2
2016-Sep-23 04:29N 29°47' E 122°26'1142578.4
2016-Sep-23 04:26N 31°28' E 121°25'784336.3
2016-Sep-23 04:25N 31°59' E 120°01'843.0
2016-Sep-23 04:14N 31°56' E 120°09'18151.4
2016-Sep-23 04:07N 32°02' E 120°30'5292.5
2016-Sep-23 03:34N 31°32' E 121°20'10039942.2
2016-Sep-23 03:33N 30°00' E 122°06'48961468871.1
2016-Sep-23 03:33S 20°09' E 057°30'48904401010.4
2016-Sep-23 03:33N 32°02' E 120°26'4611789.7
2016-Sep-23 03:33N 31°40' E 121°14'12211020.1
2016-Sep-23 03:32N 29°52' E 122°22'12219981.4
2016-Sep-23 03:32N 31°39' E 121°13'15893.3
2016-Sep-23 03:31N 31°28' E 121°25'7615158.5
2016-Sep-23 03:31N 31°58' E 120°03'5310.6
2016-Sep-23 03:29N 31°56' E 120°09'178430.2
2016-Sep-23 03:05N 29°45' E 122°28'2547.6
2016-Sep-23 02:33N 30°00' E 122°06'2517643.9
2016-Sep-23 02:33N 29°47' E 122°29'17210165.7
2016-Sep-23 02:32N 31°59' E 120°21'488417583461.3
2016-Sep-23 02:32S 20°09' E 057°30'4872584670.0
2016-Sep-23 02:32N 31°57' E 120°07'5914233.4
2016-Sep-23 02:31N 31°40' E 121°14'4913769012.8
2016-Sep-23 02:31S 20°09' E 057°30'5126335505.4
2016-Sep-23 02:30N 37°40' E 121°08'3471249717.1
2016-Sep-23 02:30N 31°56' E 120°09'131479.3
2016-Sep-23 02:30N 32°01' E 120°23'141593.2
2016-Sep-23 02:29N 31°56' E 120°08'2106.7
2016-Sep-23 02:28N 31°56' E 120°10'152162.9
2016-Sep-23 01:32N 30°00' E 122°04'48958810486.9
2016-Sep-23 01:32S 20°09' E 057°30'491235439.8
2016-Sep-23 01:24N 31°21' E 121°27'3798180.1
2016-Sep-23 01:21N 37°40' E 121°08'3865889.5
2016-Sep-23 01:17N 31°14' E 121°29'5933.9
2016-Sep-23 01:17N 31°18' E 121°33'6558107.1
2016-Sep-23 01:12N 23°04' E 113°29'65619208.3
2016-Sep-23 01:10N 31°21' E 121°31'152015.1
2016-Sep-23 01:09N 31°32' E 121°20'20453.5
2016-Sep-23 01:07N 31°23' E 121°41'380650.1
2016-Sep-23 00:32N 37°42' E 121°12'5130577167.1
2016-Sep-23 00:31S 20°09' E 057°30'4916184345.7
2016-Sep-23 00:30N 31°21' E 121°31'4320.6
2016-Sep-23 00:29N 31°18' E 121°33'65511737.2
2016-Sep-23 00:25N 23°04' E 113°29'6636401.9
2016-Sep-23 00:19N 31°23' E 121°41'382496.4
2016-Sep-22 23:33N 37°44' E 121°24'5140313635.1
2016-Sep-22 23:32S 20°09' E 057°30'4916215819.4
2016-Sep-22 23:31N 31°21' E 121°31'38259739.8
2016-Sep-22 23:30N 37°42' E 121°11'9647909.3
2016-Sep-22 23:23N 23°04' E 113°29'66010425.2
2016-Sep-22 23:19N 31°21' E 121°39'5131.9
2016-Sep-22 23:17N 31°18' E 121°33'446163.5
2016-Sep-22 20:33N 38°44' E 121°31'6111506.0
2016-Sep-22 20:33N 37°44' E 121°31'38237202.2
2016-Sep-22 20:32N 31°21' E 121°31'6567849.3
2016-Sep-22 20:27N 23°04' E 113°29'6165319.1
2016-Sep-22 20:20N 29°56' E 122°01'147724.7
2016-Sep-22 20:08N 31°58' E 120°26'34845.9
2016-Sep-22 12:33N 37°41' E 121°40'51509269380.5
2016-Sep-22 12:33S 20°09' E 057°30'49173540104.7
2016-Sep-22 12:33N 31°20' E 121°33'297.5
2016-Sep-22 12:32N 31°18' E 121°33'4916102885.0
2016-Sep-22 12:29S 20°09' E 057°30'491671948.6
2016-Sep-22 12:25N 31°21' E 121°33'159.9
2016-Sep-22 12:23N 31°21' E 121°31'9612.2
2016-Sep-22 04:33N 29°51' E 122°08'4899551093.5
2016-Sep-22 04:33S 20°11' E 057°23'5147772064.0
2016-Sep-22 04:33N 37°42' E 121°26'384230418.9
2016-Sep-22 04:32N 31°18' E 121°33'59501.2
2016-Sep-22 04:32N 31°22' E 121°30'3558.5
2016-Sep-22 04:32N 31°21' E 121°33'65765681.5
2016-Sep-22 04:31N 23°04' E 113°29'641153749.6
2016-Sep-22 04:31N 31°57' E 120°11'0736.0
2016-Sep-22 04:31N 31°56' E 120°11'4875877467.0
2016-Sep-22 04:31S 20°09' E 057°30'4918553277.0
2016-Sep-22 04:30N 31°25' E 121°31'10511.1
2016-Sep-22 04:29N 31°20' E 121°40'9535.1
2016-Sep-22 04:28N 31°25' E 121°31'3822134.1
2016-Sep-22 04:17N 37°47' E 121°24'3923676.4
2016-Sep-22 04:11N 31°15' E 121°31'778.0
2016-Sep-22 04:05N 31°21' E 121°27'71035.6
2016-Sep-22 04:05N 31°23' E 121°35'4 7.9
2016-Sep-22 03:33N 31°22' E 121°30'38065108.2
2016-Sep-22 03:33N 37°41' E 121°22'38035112.6
2016-Sep-22 03:32N 31°21' E 121°27'38515741.7
2016-Sep-22 03:31N 37°46' E 121°27'51432057269.6
2016-Sep-22 03:31S 20°09' E 057°30'491791236.4
2016-Sep-22 03:27N 31°21' E 121°33'3162.5
2016-Sep-22 03:27N 31°18' E 121°33'8341.7
2016-Sep-22 03:25N 31°25' E 121°30'251.3
2016-Sep-22 03:23N 31°24' E 121°32'8 2.9
2016-Sep-22 00:33N 31°21' E 121°41'422168813.3
2016-Sep-22 00:33N 24°46' E 118°54'4198472.8
2016-Sep-22 00:30N 31°21' E 121°33'5316.6
2016-Sep-22 00:29N 31°21' E 121°27'7826.4
2016-Sep-22 00:29N 31°23' E 121°34'1169.8
2016-Sep-22 00:19N 31°30' E 121°24'685.4
2016-Sep-22 00:15N 31°25' E 121°30'1084197.7
2016-Sep-22 00:13N 29°41' E 122°05'61511539.1
2016-Sep-22 00:10N 22°49' E 113°36'6701097.7
2016-Sep-21 23:33N 31°21' E 121°41'416106883.6
2016-Sep-21 23:33N 24°51' E 118°60'318143313.2
2016-Sep-21 23:33N 22°55' E 113°35'61345024.0
2016-Sep-21 23:32N 29°45' E 122°03'1012115.3
2016-Sep-21 23:29N 31°21' E 121°27'6548464.2
2016-Sep-21 23:25N 23°04' E 113°29'65510347.2
2016-Sep-21 23:21N 31°18' E 121°33'345.3
2016-Sep-21 23:17N 31°21' E 121°33'3 3.5
2016-Sep-21 22:33N 31°23' E 121°34'945273.3
2016-Sep-21 22:32N 29°54' E 122°09'905465.2
2016-Sep-21 22:31N 31°18' E 121°33'7200.9
2016-Sep-21 22:29N 31°21' E 121°27'65447058.9
2016-Sep-21 22:28N 23°04' E 113°29'6626305.9
2016-Sep-21 22:22N 31°21' E 121°41'8329.4
2016-Sep-21 19:33N 31°56' E 120°13'8337143.4
2016-Sep-21 19:33N 31°21' E 121°41'8111685.8
2016-Sep-21 19:33N 31°56' E 120°15'44540.5
2016-Sep-21 19:28N 31°45' E 121°05'317375.6
2016-Sep-21 19:28N 31°22' E 121°28'65565531.6
2016-Sep-21 19:27N 23°04' E 113°29'6517684.2
2016-Sep-21 19:22N 32°02' E 120°23'211209.9
2016-Sep-21 19:21N 32°01' E 119°59'862102.0
2016-Sep-21 19:19N 31°22' E 121°30'751400.5
2016-Sep-21 19:15N 31°56' E 120°11'83728.5
2016-Sep-21 19:09N 31°22' E 121°39'2 0.6
2016-Sep-21 16:33N 31°21' E 121°41'843132.8
2016-Sep-21 16:32N 31°57' E 120°11'64983385.2
2016-Sep-21 16:31N 22°52' E 113°34'66299296.1
2016-Sep-21 16:31N 31°22' E 121°28'7418.0
2016-Sep-21 16:30N 31°17' E 121°34'9026855.7
2016-Sep-21 16:30N 31°59' E 120°01'892343.2
2016-Sep-21 16:27N 31°18' E 121°33'782517.3
2016-Sep-21 16:25N 31°56' E 120°13'64127822.4
2016-Sep-21 16:24N 23°04' E 113°29'662140139.0
2016-Sep-21 16:24N 31°22' E 121°39'15346.1
2016-Sep-21 16:21N 31°30' E 121°24'68733.8
2016-Sep-21 16:16N 31°56' E 120°11'3544232.0
2016-Sep-21 16:11N 37°44' E 121°33'2 0.3
2016-Sep-21 09:33N 37°42' E 121°32'5145440961.8
2016-Sep-21 09:33S 20°09' E 057°30'49202530358.6
2016-Sep-21 09:33N 31°22' E 121°36'6204.0
2016-Sep-21 09:31N 31°22' E 121°28'128.7
2016-Sep-21 09:28N 31°22' E 121°30'65642948.4
2016-Sep-21 09:27N 23°04' E 113°29'6623142.5
2016-Sep-21 09:14N 31°22' E 121°39'222.3
2016-Sep-21 09:10N 31°20' E 121°39'2 3.1
2016-Sep-21 08:34N 31°21' E 121°41'38137051.3
2016-Sep-21 08:33N 37°42' E 121°27'97020780.3
2016-Sep-21 08:30N 23°04' E 113°29'65516269.5
2016-Sep-21 08:28N 31°22' E 121°28'492.3
2016-Sep-21 08:25N 31°21' E 121°33'6 2.2
2016-Sep-21 05:33N 31°26' E 121°30'37679599.0
2016-Sep-21 05:33N 37°42' E 121°21'381686097.6
2016-Sep-21 05:33N 31°21' E 121°41'9625.0
2016-Sep-21 05:32N 31°23' E 121°30'4916610226.5
2016-Sep-21 05:31S 20°09' E 057°30'488873623.0
2016-Sep-21 05:27N 31°58' E 120°26'15380.7
2016-Sep-21 03:33N 29°53' E 122°09'9110943.7
2016-Sep-21 03:33N 31°21' E 121°41'38455292.6
2016-Sep-21 03:33N 37°45' E 121°19'38311989.7
2016-Sep-21 03:31N 31°22' E 121°28'4914421225.2
2016-Sep-21 03:30S 20°09' E 057°30'491656539.2
2016-Sep-21 03:25N 31°18' E 121°33'6557997.3
2016-Sep-21 03:20N 23°04' E 113°29'662852.4
2016-Sep-21 02:33N 31°21' E 121°41'7248.2
2016-Sep-21 02:31N 31°18' E 121°33'3396.1
2016-Sep-21 02:31N 31°21' E 121°33'4430.7
2016-Sep-21 02:31N 31°22' E 121°28'4914478143.0
2016-Sep-21 02:30S 20°09' E 057°30'424332708.8
2016-Sep-21 02:22N 23°04' E 113°29'66175.0
2016-Sep-20 17:33N 31°21' E 121°38'7928506.3
2016-Sep-20 17:33N 30°03' E 121°56'7947365.4
2016-Sep-20 17:33N 31°21' E 121°41'179913.4
2016-Sep-20 17:33N 31°30' E 121°24'49161608737.5
2016-Sep-20 17:33S 20°09' E 057°30'491517692202.4
2016-Sep-20 17:33N 31°33' E 121°20'66237703.8
2016-Sep-20 17:33N 31°56' E 120°07'706421.0
2016-Sep-20 17:32N 31°31' E 121°23'29762868.8
2016-Sep-20 17:32N 26°47' E 119°43'30420279.0
2016-Sep-20 17:31N 31°41' E 121°10'183278.1
2016-Sep-20 17:31N 31°28' E 121°25'670.0
2016-Sep-20 17:25N 31°24' E 121°31'10205.8
2016-Sep-20 17:22N 31°14' E 121°29'54731260.9
2016-Sep-20 17:21N 23°06' E 116°53'18714050.7
2016-Sep-20 17:20N 23°04' E 113°29'618221.8
2016-Sep-20 14:33N 29°58' E 122°03'8538438.4
2016-Sep-20 14:33N 31°21' E 121°41'4923886206.6
2016-Sep-20 14:33S 20°09' E 057°30'5155662743.3
2016-Sep-20 14:32N 36°53' E 122°26'327588181.4
2016-Sep-20 14:32N 31°31' E 121°23'659112924.1
2016-Sep-20 14:32N 23°04' E 113°29'656787755.5
2016-Sep-20 14:32N 31°22' E 121°30'712827.2
2016-Sep-20 14:32N 31°28' E 121°25'6234.0
2016-Sep-20 14:30N 31°32' E 121°19'673473.8
2016-Sep-20 14:29N 31°57' E 120°07'742877.8
2016-Sep-20 14:27N 31°28' E 121°26'14408.3
2016-Sep-20 14:25N 31°15' E 121°33'999.5
2016-Sep-20 14:20N 31°24' E 121°31'6714.5
2016-Sep-20 14:20N 31°18' E 121°33'0 0.0
2016-Sep-20 13:33N 31°18' E 121°33'8427449.1
2016-Sep-20 13:33N 29°58' E 122°03'152273118.5
2016-Sep-20 13:33N 31°57' E 120°12'4876605340.3
2016-Sep-20 13:33S 20°09' E 057°30'48858793196.2
2016-Sep-20 13:33N 31°60' E 120°22'607980.2
2016-Sep-20 13:32N 31°31' E 121°23'2777.1
2016-Sep-20 13:32N 31°31' E 121°21'658197475.9
2016-Sep-20 13:32N 23°04' E 113°29'657262994.6
2016-Sep-20 13:32N 31°32' E 121°19'11606.7
2016-Sep-20 13:31N 31°25' E 121°30'2944050.2
2016-Sep-20 13:26N 26°47' E 119°43'293150534.1
2016-Sep-20 13:26N 31°24' E 121°31'81168.8
2016-Sep-20 13:26N 31°30' E 121°24'23219.0
2016-Sep-20 13:19N 31°47' E 121°06'37153.2
2016-Sep-20 13:05N 31°21' E 121°38'8634.2
2016-Sep-20 10:33N 29°58' E 122°03'4892503213.2
2016-Sep-20 10:33S 20°09' E 057°30'49131965182.1
2016-Sep-20 10:32N 31°32' E 121°19'41134.9
2016-Sep-20 10:32N 31°31' E 121°23'10542145.4
2016-Sep-20 10:32N 29°52' E 122°08'22562359.3
2016-Sep-20 10:32N 26°47' E 119°43'29362000.3
2016-Sep-20 10:32N 31°24' E 121°31'6316269.2
2016-Sep-20 10:31N 32°03' E 120°33'707191.3
2016-Sep-20 10:31N 31°15' E 121°33'1729848.3
2016-Sep-20 10:31N 31°30' E 121°24'2192.7
2016-Sep-20 10:30N 31°28' E 121°25'192185.5
2016-Sep-20 10:29N 31°42' E 121°09'5213301.2
2016-Sep-20 10:29N 31°56' E 120°10'64034889.0
2016-Sep-20 10:28N 23°04' E 113°29'65911928.5
2016-Sep-20 10:25N 31°41' E 121°10'3118624.7
2016-Sep-20 10:25N 31°22' E 121°39'144.0
2016-Sep-20 10:23N 31°21' E 121°41'16198.1
2016-Sep-20 10:18N 31°30' E 121°24'141155.9
2016-Sep-20 10:17N 31°18' E 121°33'38483.7
2016-Sep-20 10:12N 31°47' E 121°05'4183189.1
2016-Sep-20 10:05N 38°44' E 121°39'527345.8
2016-Sep-20 08:33N 29°58' E 122°03'611673.5
2016-Sep-20 08:33N 29°52' E 122°08'625132441.7
2016-Sep-20 08:33N 22°54' E 113°29'670150765.4
2016-Sep-20 08:33N 31°21' E 121°41'492317724232.1
2016-Sep-20 08:33S 20°09' E 057°30'48723507513.5
2016-Sep-20 08:33N 31°58' E 120°05'823540.7
2016-Sep-20 08:31N 31°23' E 121°32'1343.3
2016-Sep-20 08:31N 31°24' E 121°34'15742.5
2016-Sep-20 08:30N 31°32' E 121°19'13386.6
2016-Sep-20 08:28N 31°24' E 121°31'62576.4
2016-Sep-20 08:28N 31°28' E 121°25'3130.6
2016-Sep-20 08:26N 31°31' E 121°23'155511.5
2016-Sep-20 08:26N 31°18' E 121°33'655235930.3
2016-Sep-20 08:26N 23°04' E 113°29'65373454.5
2016-Sep-20 08:25N 31°15' E 121°32'862393.6
2016-Sep-20 08:23N 31°57' E 120°04'157188.6
2016-Sep-20 07:33N 29°58' E 122°03'1011542.9
2016-Sep-20 07:33N 29°48' E 122°05'48891759884.2
2016-Sep-20 07:33S 20°09' E 057°29'49161106069.1
2016-Sep-20 07:33N 31°28' E 121°25'6927538.7
2016-Sep-20 07:33N 31°57' E 120°12'8475376.4
2016-Sep-20 07:33N 31°21' E 121°41'71104.5
2016-Sep-20 07:32N 31°18' E 121°33'28841452.7
2016-Sep-20 07:32N 26°47' E 119°43'29810201.6
2016-Sep-20 07:30N 31°32' E 121°19'66221476.5
2016-Sep-20 07:28N 22°58' E 113°30'663132509.7
2016-Sep-20 07:28N 31°24' E 121°31'84927.3
2016-Sep-20 07:28N 31°30' E 121°24'9267.9
2016-Sep-20 07:26N 31°22' E 121°29'2230.3
2016-Sep-20 07:25N 31°21' E 121°31'11134.9
2016-Sep-20 07:20N 31°31' E 121°23'659395244.1
2016-Sep-20 07:20N 23°04' E 113°29'6299200.1
2016-Sep-20 07:16N 29°53' E 122°22'629883.4
2016-Sep-20 06:33N 23°04' E 113°29'619742310.4
2016-Sep-20 06:33N 29°58' E 122°03'49001356973.2
2016-Sep-20 06:33S 20°12' E 057°22'4923369221.2
2016-Sep-20 06:32N 31°31' E 121°23'1155122.8
2016-Sep-20 06:31N 29°41' E 122°06'16511903.2
2016-Sep-20 06:30N 31°57' E 120°15'31114733.6
2016-Sep-20 06:29N 26°47' E 119°43'2951063227.2
2016-Sep-20 06:29N 31°28' E 121°25'14311.7
2016-Sep-20 06:26N 31°22' E 121°40'20427.6
2016-Sep-20 06:23N 31°32' E 121°19'4182.9
2016-Sep-20 06:22N 31°30' E 121°24'15223.2
2016-Sep-20 06:18N 31°41' E 121°11'24350.0
2016-Sep-20 06:14N 31°22' E 121°29'29682.1
2016-Sep-20 06:11N 31°44' E 121°07'2137.6
2016-Sep-20 06:10N 31°43' E 121°08'11732.5
2016-Sep-20 02:34N 29°55' E 122°03'  

Dump ship's entire track history